<?xml version="1.0" encoding="utf-8" standalone="yes"?>
<gpx version="1.1" creator="Locus Map, Android"
 xmlns="http://www.topografix.com/GPX/1/1"
 xmlns:xsi="http://www.w3.org/2001/XMLSchema-instance"
 xsi:schemaLocation="http://www.topografix.com/GPX/1/1 http://www.topografix.com/GPX/1/1/gpx.xsd"
 xmlns:gpxx="http://www.garmin.com/xmlschemas/GpxExtensions/v3"
 xmlns:gpxtrkx="http://www.garmin.com/xmlschemas/TrackStatsExtension/v1"
 xmlns:gpxtpx="http://www.garmin.com/xmlschemas/TrackPointExtension/v2"
 xmlns:locus="https://www.locusmap.app">
	<metadata>
		<desc>File with points/tracks from Locus Map/4.32.4</desc>
		<time>2026-03-17T14:57:40.961Z</time>
	</metadata>
<trk>
	<name>Route BASF</name>
	<extensions>
		<line xmlns="http://www.topografix.com/GPX/gpx_style/0/2">
			<color>0000FF</color>
			<opacity>0.70</opacity>
			<width>6.0</width>
			<extensions>
				<locus:lsColorBase>#B30000FF</locus:lsColorBase>
				<locus:lsWidth>6.0</locus:lsWidth>
				<locus:lsUnits>PIXELS</locus:lsUnits>
			</extensions>
		</line>
		<locus:activity>cycling</locus:activity>
		<locus:rteComputeType>13</locus:rteComputeType>
	</extensions>
<trkseg>
<trkpt lat="51.3543587" lon="4.3857231">
	<ele>11.50</ele>
	<time>1970-01-01T00:00:00.000Z</time>
</trkpt>
<trkpt lat="51.3545723" lon="4.3856139">
	<ele>12.00</ele>
	<time>1970-01-01T00:00:05.247Z</time>
</trkpt>
<trkpt lat="51.3544388" lon="4.3849139">
	<ele>11.75</ele>
	<time>1970-01-01T00:00:14.894Z</time>
</trkpt>
<trkpt lat="51.3543777" lon="4.3845768">
	<ele>11.75</ele>
	<time>1970-01-01T00:00:19.386Z</time>
</trkpt>
<trkpt lat="51.3543777" lon="4.3845291">
	<ele>11.75</ele>
	<time>1970-01-01T00:00:19.946Z</time>
</trkpt>
<trkpt lat="51.3543777" lon="4.3843818">
	<ele>11.75</ele>
	<time>1970-01-01T00:00:21.810Z</time>
</trkpt>
<trkpt lat="51.3546333" lon="4.3808818">
	<ele>10.50</ele>
	<time>1970-01-01T00:01:01.126Z</time>
</trkpt>
<trkpt lat="51.3548241" lon="4.3783579">
	<ele>13.00</ele>
	<time>1970-01-01T00:01:47.091Z</time>
</trkpt>
<trkpt lat="51.3550072" lon="4.3759012">
	<ele>10.00</ele>
	<time>1970-01-01T00:02:09.553Z</time>
</trkpt>
<trkpt lat="51.3550758" lon="4.3747959">
	<ele>10.00</ele>
	<time>1970-01-01T00:02:22.346Z</time>
</trkpt>
<trkpt lat="51.3550682" lon="4.3746138">
	<ele>10.00</ele>
	<time>1970-01-01T00:02:24.585Z</time>
</trkpt>
<trkpt lat="51.3550606" lon="4.3745990">
	<ele>9.75</ele>
	<time>1970-01-01T00:02:24.746Z</time>
</trkpt>
<trkpt lat="51.3550148" lon="4.3744302">
	<ele>9.75</ele>
	<time>1970-01-01T00:02:27.124Z</time>
</trkpt>
<trkpt lat="51.3549843" lon="4.3743691">
	<ele>9.75</ele>
	<time>1970-01-01T00:02:28.039Z</time>
</trkpt>
<trkpt lat="51.3545380" lon="4.3733778">
	<ele>9.25</ele>
	<time>1970-01-01T00:02:42.108Z</time>
</trkpt>
<trkpt lat="51.3536453" lon="4.3713579">
	<ele>9.00</ele>
	<time>1970-01-01T00:03:11.553Z</time>
</trkpt>
<trkpt lat="51.3532028" lon="4.3703198">
	<ele>8.00</ele>
	<time>1970-01-01T00:03:24.482Z</time>
</trkpt>
<trkpt lat="51.3529778" lon="4.3698549">
	<ele>8.00</ele>
	<time>1970-01-01T00:03:31.199Z</time>
</trkpt>
<trkpt lat="51.3525429" lon="4.3688779">
	<ele>8.00</ele>
	<time>1970-01-01T00:03:45.478Z</time>
</trkpt>
<trkpt lat="51.3524704" lon="4.3687148">
	<ele>8.00</ele>
	<time>1970-01-01T00:03:47.947Z</time>
</trkpt>
<trkpt lat="51.3523598" lon="4.3684659">
	<ele>8.00</ele>
	<time>1970-01-01T00:03:51.671Z</time>
</trkpt>
<trkpt lat="51.3521881" lon="4.3680878">
	<ele>8.00</ele>
	<time>1970-01-01T00:03:57.565Z</time>
</trkpt>
<trkpt lat="51.3512344" lon="4.3659821">
	<ele>7.00</ele>
	<time>1970-01-01T00:04:26.219Z</time>
</trkpt>
<trkpt lat="51.3504372" lon="4.3641639">
	<ele>6.00</ele>
	<time>1970-01-01T00:04:50.056Z</time>
</trkpt>
<trkpt lat="51.3489456" lon="4.3606539">
	<ele>6.00</ele>
	<time>1970-01-01T00:05:42.914Z</time>
</trkpt>
<trkpt lat="51.3488770" lon="4.3604932">
	<ele>5.75</ele>
	<time>1970-01-01T00:05:45.294Z</time>
</trkpt>
<trkpt lat="51.3483582" lon="4.3592792">
	<ele>5.25</ele>
	<time>1970-01-01T00:06:01.606Z</time>
</trkpt>
<trkpt lat="51.3433990" lon="4.3474960">
	<ele>4.00</ele>
	<time>1970-01-01T00:08:54.389Z</time>
</trkpt>
<trkpt lat="51.3433990" lon="4.3474870">
	<ele>4.00</ele>
	<time>1970-01-01T00:08:54.572Z</time>
</trkpt>
<trkpt lat="51.3433876" lon="4.3474422">
	<ele>4.00</ele>
	<time>1970-01-01T00:08:55.121Z</time>
</trkpt>
<trkpt lat="51.3438416" lon="4.3469820">
	<ele>4.00</ele>
	<time>1970-01-01T00:09:06.098Z</time>
</trkpt>
<trkpt lat="51.3440781" lon="4.3466949">
	<ele>4.75</ele>
	<time>1970-01-01T00:09:13.465Z</time>
</trkpt>
<trkpt lat="51.3441353" lon="4.3465838">
	<ele>4.75</ele>
	<time>1970-01-01T00:09:15.611Z</time>
</trkpt>
<trkpt lat="51.3441734" lon="4.3464332">
	<ele>4.00</ele>
	<time>1970-01-01T00:09:17.479Z</time>
</trkpt>
<trkpt lat="51.3441811" lon="4.3463459">
	<ele>5.00</ele>
	<time>1970-01-01T00:09:18.863Z</time>
</trkpt>
<trkpt lat="51.3441811" lon="4.3461990">
	<ele>8.75</ele>
	<time>1970-01-01T00:09:21.686Z</time>
</trkpt>
<trkpt lat="51.3441315" lon="4.3456411">
	<ele>6.75</ele>
	<time>1970-01-01T00:09:34.503Z</time>
</trkpt>
<trkpt lat="51.3441315" lon="4.3455811">
	<ele>5.50</ele>
	<time>1970-01-01T00:09:35.311Z</time>
</trkpt>
<trkpt lat="51.3441391" lon="4.3455200">
	<ele>4.75</ele>
	<time>1970-01-01T00:09:35.956Z</time>
</trkpt>
<trkpt lat="51.3441544" lon="4.3454590">
	<ele>4.50</ele>
	<time>1970-01-01T00:09:36.714Z</time>
</trkpt>
<trkpt lat="51.3440933" lon="4.3454051">
	<ele>4.50</ele>
	<time>1970-01-01T00:09:37.940Z</time>
</trkpt>
<trkpt lat="51.3440666" lon="4.3453999">
	<ele>4.50</ele>
	<time>1970-01-01T00:09:38.404Z</time>
</trkpt>
<trkpt lat="51.3426666" lon="4.3456321">
	<ele>4.00</ele>
	<time>1970-01-01T00:10:02.767Z</time>
</trkpt>
<trkpt lat="51.3426094" lon="4.3456020">
	<ele>3.50</ele>
	<time>1970-01-01T00:10:03.814Z</time>
</trkpt>
<trkpt lat="51.3425751" lon="4.3455310">
	<ele>3.00</ele>
	<time>1970-01-01T00:10:04.615Z</time>
</trkpt>
<trkpt lat="51.3422585" lon="4.3447690">
	<ele>4.00</ele>
	<time>1970-01-01T00:10:16.046Z</time>
</trkpt>
<trkpt lat="51.3416214" lon="4.3433032">
	<ele>3.75</ele>
	<time>1970-01-01T00:10:37.742Z</time>
</trkpt>
<trkpt lat="51.3393974" lon="4.3380408">
	<ele>3.75</ele>
	<time>1970-01-01T00:11:58.123Z</time>
</trkpt>
<trkpt lat="51.3364334" lon="4.3309650">
	<ele>3.00</ele>
	<time>1970-01-01T00:13:42.550Z</time>
</trkpt>
<trkpt lat="51.3364182" lon="4.3308988">
	<ele>3.00</ele>
	<time>1970-01-01T00:13:43.464Z</time>
</trkpt>
<trkpt lat="51.3364105" lon="4.3308291">
	<ele>3.00</ele>
	<time>1970-01-01T00:13:44.378Z</time>
</trkpt>
<trkpt lat="51.3361702" lon="4.3275318">
	<ele>3.00</ele>
	<time>1970-01-01T00:14:26.630Z</time>
</trkpt>
<trkpt lat="51.3361588" lon="4.3274369">
	<ele>3.00</ele>
	<time>1970-01-01T00:14:27.910Z</time>
</trkpt>
<trkpt lat="51.3361397" lon="4.3273439">
	<ele>3.00</ele>
	<time>1970-01-01T00:14:29.191Z</time>
</trkpt>
<trkpt lat="51.3358574" lon="4.3262100">
	<ele>3.00</ele>
	<time>1970-01-01T00:14:44.741Z</time>
</trkpt>
<trkpt lat="51.3352509" lon="4.3237581">
	<ele>3.25</ele>
	<time>1970-01-01T00:15:19.602Z</time>
</trkpt>
<trkpt lat="51.3352242" lon="4.3236332">
	<ele>3.50</ele>
	<time>1970-01-01T00:15:21.395Z</time>
</trkpt>
<trkpt lat="51.3352509" lon="4.3236179">
	<ele>3.25</ele>
	<time>1970-01-01T00:15:21.947Z</time>
</trkpt>
<trkpt lat="51.3352242" lon="4.3236332">
	<ele>3.50</ele>
	<time>1970-01-01T00:15:22.539Z</time>
</trkpt>
<trkpt lat="51.3352509" lon="4.3237581">
	<ele>3.25</ele>
	<time>1970-01-01T00:15:24.182Z</time>
</trkpt>
<trkpt lat="51.3367882" lon="4.3228898">
	<ele>3.50</ele>
	<time>1970-01-01T00:15:58.640Z</time>
</trkpt>
<trkpt lat="51.3367767" lon="4.3228078">
	<ele>3.25</ele>
	<time>1970-01-01T00:15:59.672Z</time>
</trkpt>
<trkpt lat="51.3367691" lon="4.3227620">
	<ele>3.25</ele>
	<time>1970-01-01T00:16:00.190Z</time>
</trkpt>
<trkpt lat="51.3367653" lon="4.3227029">
	<ele>3.25</ele>
	<time>1970-01-01T00:16:00.881Z</time>
</trkpt>
<trkpt lat="51.3360939" lon="4.3143191">
	<ele>3.00</ele>
	<time>1970-01-01T00:17:46.259Z</time>
</trkpt>
<trkpt lat="51.3360977" lon="4.3142328">
	<ele>3.00</ele>
	<time>1970-01-01T00:17:47.357Z</time>
</trkpt>
<trkpt lat="51.3361092" lon="4.3141789">
	<ele>3.00</ele>
	<time>1970-01-01T00:17:48.088Z</time>
</trkpt>
<trkpt lat="51.3361435" lon="4.3141370">
	<ele>3.00</ele>
	<time>1970-01-01T00:17:49.002Z</time>
</trkpt>
<trkpt lat="51.3364716" lon="4.3139610">
	<ele>3.75</ele>
	<time>1970-01-01T00:17:57.444Z</time>
</trkpt>
<trkpt lat="51.3365517" lon="4.3138852">
	<ele>4.00</ele>
	<time>1970-01-01T00:17:59.738Z</time>
</trkpt>
<trkpt lat="51.3366356" lon="4.3137822">
	<ele>4.00</ele>
	<time>1970-01-01T00:18:02.427Z</time>
</trkpt>
<trkpt lat="51.3373871" lon="4.3136830">
	<ele>3.75</ele>
	<time>1970-01-01T00:18:18.998Z</time>
</trkpt>
<trkpt lat="51.3383102" lon="4.3135939">
	<ele>3.00</ele>
	<time>1970-01-01T00:18:35.880Z</time>
</trkpt>
<trkpt lat="51.3391190" lon="4.3135381">
	<ele>4.00</ele>
	<time>1970-01-01T00:18:55.232Z</time>
</trkpt>
<trkpt lat="51.3399353" lon="4.3134928">
	<ele>4.75</ele>
	<time>1970-01-01T00:19:15.961Z</time>
</trkpt>
<trkpt lat="51.3402443" lon="4.3134980">
	<ele>5.00</ele>
	<time>1970-01-01T00:19:23.619Z</time>
</trkpt>
<trkpt lat="51.3403091" lon="4.3135090">
	<ele>4.75</ele>
	<time>1970-01-01T00:19:24.990Z</time>
</trkpt>
<trkpt lat="51.3403473" lon="4.3135180">
	<ele>4.75</ele>
	<time>1970-01-01T00:19:25.770Z</time>
</trkpt>
<trkpt lat="51.3403816" lon="4.3130579">
	<ele>4.50</ele>
	<time>1970-01-01T00:19:31.558Z</time>
</trkpt>
<trkpt lat="51.3404388" lon="4.3124862">
	<ele>4.00</ele>
	<time>1970-01-01T00:19:37.988Z</time>
</trkpt>
<trkpt lat="51.3404121" lon="4.3123260">
	<ele>4.00</ele>
	<time>1970-01-01T00:19:39.808Z</time>
</trkpt>
<trkpt lat="51.3404198" lon="4.3121338">
	<ele>4.00</ele>
	<time>1970-01-01T00:19:41.983Z</time>
</trkpt>
<trkpt lat="51.3404083" lon="4.3118601">
	<ele>4.00</ele>
	<time>1970-01-01T00:19:45.203Z</time>
</trkpt>
<trkpt lat="51.3403740" lon="4.3115640">
	<ele>4.00</ele>
	<time>1970-01-01T00:19:48.811Z</time>
</trkpt>
<trkpt lat="51.3402977" lon="4.3109789">
	<ele>4.00</ele>
	<time>1970-01-01T00:19:56.148Z</time>
</trkpt>
<trkpt lat="51.3400307" lon="4.3083649">
	<ele>4.00</ele>
	<time>1970-01-01T00:20:29.238Z</time>
</trkpt>
<trkpt lat="51.3398018" lon="4.3059392">
	<ele>3.25</ele>
	<time>1970-01-01T00:20:57.281Z</time>
</trkpt>
<trkpt lat="51.3397675" lon="4.3056731">
	<ele>3.50</ele>
	<time>1970-01-01T00:21:00.866Z</time>
</trkpt>
<trkpt lat="51.3397064" lon="4.3053932">
	<ele>4.00</ele>
	<time>1970-01-01T00:21:05.402Z</time>
</trkpt>
<trkpt lat="51.3396568" lon="4.3051848">
	<ele>4.00</ele>
	<time>1970-01-01T00:21:08.761Z</time>
</trkpt>
<trkpt lat="51.3396492" lon="4.3051100">
	<ele>4.00</ele>
	<time>1970-01-01T00:21:09.796Z</time>
</trkpt>
<trkpt lat="51.3396568" lon="4.3050489">
	<ele>4.00</ele>
	<time>1970-01-01T00:21:10.619Z</time>
</trkpt>
<trkpt lat="51.3396721" lon="4.3049960">
	<ele>4.00</ele>
	<time>1970-01-01T00:22:28.650Z</time>
</trkpt>
<trkpt lat="51.3397064" lon="4.3049588">
	<ele>4.00</ele>
	<time>1970-01-01T00:22:29.286Z</time>
</trkpt>
<trkpt lat="51.3397942" lon="4.3049388">
	<ele>3.75</ele>
	<time>1970-01-01T00:22:30.518Z</time>
</trkpt>
<trkpt lat="51.3398666" lon="4.3049502">
	<ele>3.50</ele>
	<time>1970-01-01T00:22:31.480Z</time>
</trkpt>
<trkpt lat="51.3402748" lon="4.3050652">
	<ele>3.00</ele>
	<time>1970-01-01T00:22:36.975Z</time>
</trkpt>
<trkpt lat="51.3413391" lon="4.3051949">
	<ele>4.00</ele>
	<time>1970-01-01T00:22:57.670Z</time>
</trkpt>
</trkseg>
<trkseg>
<trkpt lat="51.3423805" lon="4.3052988">
	<ele>3.00</ele>
	<time>1970-01-01T00:23:15.283Z</time>
</trkpt>
<trkpt lat="51.3445587" lon="4.3054829">
	<ele>4.00</ele>
	<time>1970-01-01T00:24:03.260Z</time>
</trkpt>
<trkpt lat="51.3447189" lon="4.3055549">
	<ele>4.00</ele>
	<time>1970-01-01T00:24:06.793Z</time>
</trkpt>
<trkpt lat="51.3457451" lon="4.3057880">
	<ele>3.75</ele>
	<time>1970-01-01T00:24:27.082Z</time>
</trkpt>
<trkpt lat="51.3459244" lon="4.3058190">
	<ele>3.50</ele>
	<time>1970-01-01T00:24:30.443Z</time>
</trkpt>
<trkpt lat="51.3461075" lon="4.3058348">
	<ele>3.00</ele>
	<time>1970-01-01T00:24:33.598Z</time>
</trkpt>
<trkpt lat="51.3463974" lon="4.3058610">
	<ele>3.00</ele>
	<time>1970-01-01T00:24:38.618Z</time>
</trkpt>
<trkpt lat="51.3481216" lon="4.3060269">
	<ele>3.75</ele>
	<time>1970-01-01T00:25:15.231Z</time>
</trkpt>
<trkpt lat="51.3485909" lon="4.3060818">
	<ele>4.00</ele>
	<time>1970-01-01T00:25:25.635Z</time>
</trkpt>
<trkpt lat="51.3489838" lon="4.3060799">
	<ele>4.00</ele>
	<time>1970-01-01T00:25:34.039Z</time>
</trkpt>
<trkpt lat="51.3496132" lon="4.3060250">
	<ele>4.00</ele>
	<time>1970-01-01T00:25:47.163Z</time>
</trkpt>
<trkpt lat="51.3498955" lon="4.3060012">
	<ele>4.00</ele>
	<time>1970-01-01T00:25:52.918Z</time>
</trkpt>
</trkseg>
<trkseg>
<trkpt lat="51.3504028" lon="4.3060131">
	<ele>3.75</ele>
	<time>1970-01-01T00:26:02.856Z</time>
</trkpt>
<trkpt lat="51.3513680" lon="4.3060861">
	<ele>4.00</ele>
	<time>1970-01-01T00:26:23.107Z</time>
</trkpt>
<trkpt lat="51.3514252" lon="4.3060880">
	<ele>4.00</ele>
	<time>1970-01-01T00:26:24.219Z</time>
</trkpt>
<trkpt lat="51.3514252" lon="4.3062110">
	<ele>4.00</ele>
	<time>1970-01-01T00:26:25.886Z</time>
</trkpt>
<trkpt lat="51.3518372" lon="4.3062549">
	<ele>4.00</ele>
	<time>1970-01-01T00:26:34.381Z</time>
</trkpt>
<trkpt lat="51.3523216" lon="4.3062901">
	<ele>4.00</ele>
	<time>1970-01-01T00:26:44.316Z</time>
</trkpt>
<trkpt lat="51.3533745" lon="4.3062630">
	<ele>4.00</ele>
	<time>1970-01-01T00:27:05.959Z</time>
</trkpt>
<trkpt lat="51.3541183" lon="4.3062472">
	<ele>4.50</ele>
	<time>1970-01-01T00:27:22.841Z</time>
</trkpt>
<trkpt lat="51.3544960" lon="4.3062749">
	<ele>4.00</ele>
	<time>1970-01-01T00:27:30.016Z</time>
</trkpt>
<trkpt lat="51.3553658" lon="4.3064222">
	<ele>4.00</ele>
	<time>1970-01-01T00:27:47.141Z</time>
</trkpt>
<trkpt lat="51.3570251" lon="4.3067269">
	<ele>4.00</ele>
	<time>1970-01-01T00:28:20.843Z</time>
</trkpt>
<trkpt lat="51.3576851" lon="4.3068180">
	<ele>4.50</ele>
	<time>1970-01-01T00:28:35.713Z</time>
</trkpt>
<trkpt lat="51.3580780" lon="4.3068771">
	<ele>4.00</ele>
	<time>1970-01-01T00:28:43.262Z</time>
</trkpt>
<trkpt lat="51.3585320" lon="4.3069401">
	<ele>5.00</ele>
	<time>1970-01-01T00:28:54.688Z</time>
</trkpt>
<trkpt lat="51.3590775" lon="4.3071499">
	<ele>5.00</ele>
	<time>1970-01-01T00:29:07.612Z</time>
</trkpt>
<trkpt lat="51.3593178" lon="4.3072252">
	<ele>5.50</ele>
	<time>1970-01-01T00:29:13.701Z</time>
</trkpt>
<trkpt lat="51.3595810" lon="4.3072519">
	<ele>6.75</ele>
	<time>1970-01-01T00:29:22.643Z</time>
</trkpt>
<trkpt lat="51.3596382" lon="4.3072591">
	<ele>7.25</ele>
	<time>1970-01-01T00:29:24.547Z</time>
</trkpt>
<trkpt lat="51.3596458" lon="4.3073788">
	<ele>7.25</ele>
	<time>1970-01-01T00:29:27.000Z</time>
</trkpt>
<trkpt lat="51.3597145" lon="4.3079572">
	<ele>6.75</ele>
	<time>1970-01-01T00:29:36.983Z</time>
</trkpt>
<trkpt lat="51.3597336" lon="4.3080812">
	<ele>7.00</ele>
	<time>1970-01-01T00:29:39.197Z</time>
</trkpt>
<trkpt lat="51.3598251" lon="4.3080549">
	<ele>7.00</ele>
	<time>1970-01-01T00:29:41.591Z</time>
</trkpt>
<trkpt lat="51.3602905" lon="4.3080711">
	<ele>6.75</ele>
	<time>1970-01-01T00:29:52.509Z</time>
</trkpt>
<trkpt lat="51.3614235" lon="4.3080192">
	<ele>5.75</ele>
	<time>1970-01-01T00:30:13.128Z</time>
</trkpt>
<trkpt lat="51.3623352" lon="4.3076391">
	<ele>4.25</ele>
	<time>1970-01-01T00:30:27.491Z</time>
</trkpt>
<trkpt lat="51.3624039" lon="4.3076162">
	<ele>4.00</ele>
	<time>1970-01-01T00:30:28.653Z</time>
</trkpt>
<trkpt lat="51.3631935" lon="4.3072710">
	<ele>3.00</ele>
	<time>1970-01-01T00:30:40.739Z</time>
</trkpt>
<trkpt lat="51.3635674" lon="4.3071871">
	<ele>3.50</ele>
	<time>1970-01-01T00:30:48.028Z</time>
</trkpt>
<trkpt lat="51.3669167" lon="4.3064780">
	<ele>3.75</ele>
	<time>1970-01-01T00:31:57.411Z</time>
</trkpt>
<trkpt lat="51.3668404" lon="4.3066268">
	<ele>3.50</ele>
	<time>1970-01-01T00:31:59.629Z</time>
</trkpt>
<trkpt lat="51.3666420" lon="4.3114128">
	<ele>3.75</ele>
	<time>1970-01-01T00:33:00.909Z</time>
</trkpt>
<trkpt lat="51.3666191" lon="4.3116632">
	<ele>4.25</ele>
	<time>1970-01-01T00:33:04.706Z</time>
</trkpt>
<trkpt lat="51.3665733" lon="4.3119769">
	<ele>5.00</ele>
	<time>1970-01-01T00:33:10.535Z</time>
</trkpt>
<trkpt lat="51.3665199" lon="4.3122482">
	<ele>4.50</ele>
	<time>1970-01-01T00:33:14.661Z</time>
</trkpt>
<trkpt lat="51.3663483" lon="4.3127842">
	<ele>4.25</ele>
	<time>1970-01-01T00:33:22.541Z</time>
</trkpt>
<trkpt lat="51.3663788" lon="4.3128090">
	<ele>4.00</ele>
	<time>1970-01-01T00:33:23.234Z</time>
</trkpt>
<trkpt lat="51.3664169" lon="4.3128390">
	<ele>4.25</ele>
	<time>1970-01-01T00:33:24.169Z</time>
</trkpt>
<trkpt lat="51.3664627" lon="4.3128729">
	<ele>4.75</ele>
	<time>1970-01-01T00:33:25.473Z</time>
</trkpt>
<trkpt lat="51.3664932" lon="4.3128710">
	<ele>5.00</ele>
	<time>1970-01-01T00:33:26.172Z</time>
</trkpt>
<trkpt lat="51.3665199" lon="4.3128409">
	<ele>5.25</ele>
	<time>1970-01-01T00:33:27.170Z</time>
</trkpt>
<trkpt lat="51.3669434" lon="4.3119431">
	<ele>5.75</ele>
	<time>1970-01-01T00:33:46.809Z</time>
</trkpt>
<trkpt lat="51.3673973" lon="4.3110528">
	<ele>8.50</ele>
	<time>1970-01-01T00:34:02.830Z</time>
</trkpt>
<trkpt lat="51.3675117" lon="4.3108468">
	<ele>6.75</ele>
	<time>1970-01-01T00:34:08.056Z</time>
</trkpt>
<trkpt lat="51.3675880" lon="4.3106890">
	<ele>7.75</ele>
	<time>1970-01-01T00:34:12.803Z</time>
</trkpt>
<trkpt lat="51.3676834" lon="4.3103929">
	<ele>7.25</ele>
	<time>1970-01-01T00:34:19.021Z</time>
</trkpt>
<trkpt lat="51.3677635" lon="4.3100548">
	<ele>5.25</ele>
	<time>1970-01-01T00:34:22.680Z</time>
</trkpt>
<trkpt lat="51.3678017" lon="4.3098850">
	<ele>5.25</ele>
	<time>1970-01-01T00:34:24.499Z</time>
</trkpt>
<trkpt lat="51.3678284" lon="4.3096828">
	<ele>5.75</ele>
	<time>1970-01-01T00:34:26.982Z</time>
</trkpt>
<trkpt lat="51.3679962" lon="4.3083100">
	<ele>9.25</ele>
	<time>1970-01-01T00:34:46.202Z</time>
</trkpt>
<trkpt lat="51.3681145" lon="4.3070388">
	<ele>12.75</ele>
	<time>1970-01-01T00:35:19.764Z</time>
</trkpt>
<trkpt lat="51.3681602" lon="4.3064318">
	<ele>14.75</ele>
	<time>1970-01-01T00:35:37.541Z</time>
</trkpt>
<trkpt lat="51.3682861" lon="4.3042340">
	<ele>15.00</ele>
	<time>1970-01-01T00:36:19.535Z</time>
</trkpt>
<trkpt lat="51.3683586" lon="4.3028789">
	<ele>14.75</ele>
	<time>1970-01-01T00:36:37.943Z</time>
</trkpt>
<trkpt lat="51.3683662" lon="4.3027120">
	<ele>12.50</ele>
	<time>1970-01-01T00:36:42.212Z</time>
</trkpt>
<trkpt lat="51.3683815" lon="4.3023729">
	<ele>12.50</ele>
	<time>1970-01-01T00:36:45.277Z</time>
</trkpt>
<trkpt lat="51.3685417" lon="4.2985501">
	<ele>12.25</ele>
	<time>1970-01-01T00:37:27.477Z</time>
</trkpt>
<trkpt lat="51.3685722" lon="4.2980561">
	<ele>14.00</ele>
	<time>1970-01-01T00:37:37.338Z</time>
</trkpt>
<trkpt lat="51.3686028" lon="4.2976780">
	<ele>14.75</ele>
	<time>1970-01-01T00:37:45.603Z</time>
</trkpt>
<trkpt lat="51.3686790" lon="4.2971702">
	<ele>14.75</ele>
	<time>1970-01-01T00:37:55.250Z</time>
</trkpt>
<trkpt lat="51.3687363" lon="4.2968559">
	<ele>13.75</ele>
	<time>1970-01-01T00:37:59.480Z</time>
</trkpt>
<trkpt lat="51.3687935" lon="4.2965522">
	<ele>13.00</ele>
	<time>1970-01-01T00:38:02.806Z</time>
</trkpt>
<trkpt lat="51.3688583" lon="4.2962651">
	<ele>13.25</ele>
	<time>1970-01-01T00:38:06.312Z</time>
</trkpt>
<trkpt lat="51.3690071" lon="4.2957120">
	<ele>13.50</ele>
	<time>1970-01-01T00:38:13.948Z</time>
</trkpt>
<trkpt lat="51.3690948" lon="4.2954421">
	<ele>13.00</ele>
	<time>1970-01-01T00:38:17.298Z</time>
</trkpt>
<trkpt lat="51.3692741" lon="4.2949700">
	<ele>12.75</ele>
	<time>1970-01-01T00:38:23.207Z</time>
</trkpt>
<trkpt lat="51.3694687" lon="4.2945251">
	<ele>13.00</ele>
	<time>1970-01-01T00:38:29.807Z</time>
</trkpt>
<trkpt lat="51.3696785" lon="4.2941351">
	<ele>12.50</ele>
	<time>1970-01-01T00:38:35.433Z</time>
</trkpt>
<trkpt lat="51.3704872" lon="4.2927899">
	<ele>11.75</ele>
	<time>1970-01-01T00:38:55.030Z</time>
</trkpt>
<trkpt lat="51.3709412" lon="4.2918119">
	<ele>11.00</ele>
	<time>1970-01-01T00:39:07.655Z</time>
</trkpt>
<trkpt lat="51.3713036" lon="4.2907391">
	<ele>10.50</ele>
	<time>1970-01-01T00:39:20.550Z</time>
</trkpt>
<trkpt lat="51.3714561" lon="4.2900920">
	<ele>10.00</ele>
	<time>1970-01-01T00:39:27.684Z</time>
</trkpt>
<trkpt lat="51.3715744" lon="4.2894421">
	<ele>9.50</ele>
	<time>1970-01-01T00:39:34.440Z</time>
</trkpt>
<trkpt lat="51.3715820" lon="4.2893529">
	<ele>9.75</ele>
	<time>1970-01-01T00:39:35.414Z</time>
</trkpt>
<trkpt lat="51.3715935" lon="4.2892251">
	<ele>9.75</ele>
	<time>1970-01-01T00:39:36.888Z</time>
</trkpt>
<trkpt lat="51.3716087" lon="4.2890730">
	<ele>10.00</ele>
	<time>1970-01-01T00:39:38.840Z</time>
</trkpt>
<trkpt lat="51.3716202" lon="4.2889729">
	<ele>10.00</ele>
	<time>1970-01-01T00:39:40.085Z</time>
</trkpt>
<trkpt lat="51.3716354" lon="4.2888551">
	<ele>10.00</ele>
	<time>1970-01-01T00:39:41.511Z</time>
</trkpt>
<trkpt lat="51.3716431" lon="4.2887869">
	<ele>10.00</ele>
	<time>1970-01-01T00:39:42.404Z</time>
</trkpt>
<trkpt lat="51.3717346" lon="4.2877469">
	<ele>10.00</ele>
	<time>1970-01-01T00:39:55.536Z</time>
</trkpt>
<trkpt lat="51.3717766" lon="4.2875299">
	<ele>10.00</ele>
	<time>1970-01-01T00:39:58.432Z</time>
</trkpt>
<trkpt lat="51.3721199" lon="4.2837300">
	<ele>9.00</ele>
	<time>1970-01-01T00:40:42.509Z</time>
</trkpt>
<trkpt lat="51.3722496" lon="4.2823682">
	<ele>9.00</ele>
	<time>1970-01-01T00:40:59.831Z</time>
</trkpt>
<trkpt lat="51.3724823" lon="4.2797551">
	<ele>9.00</ele>
	<time>1970-01-01T00:41:33.367Z</time>
</trkpt>
<trkpt lat="51.3728027" lon="4.2763190">
	<ele>8.75</ele>
	<time>1970-01-01T00:42:16.375Z</time>
</trkpt>
<trkpt lat="51.3730202" lon="4.2741241">
	<ele>9.00</ele>
	<time>1970-01-01T00:42:45.754Z</time>
</trkpt>
<trkpt lat="51.3731461" lon="4.2729192">
	<ele>8.75</ele>
	<time>1970-01-01T00:43:00.679Z</time>
</trkpt>
<trkpt lat="51.3732834" lon="4.2719989">
	<ele>8.75</ele>
	<time>1970-01-01T00:43:12.525Z</time>
</trkpt>
<trkpt lat="51.3740807" lon="4.2676411">
	<ele>8.75</ele>
	<time>1970-01-01T00:44:10.099Z</time>
</trkpt>
<trkpt lat="51.3743286" lon="4.2662640">
	<ele>9.00</ele>
	<time>1970-01-01T00:44:29.296Z</time>
</trkpt>
<trkpt lat="51.3744202" lon="4.2657008">
	<ele>9.00</ele>
	<time>1970-01-01T00:44:36.970Z</time>
</trkpt>
<trkpt lat="51.3744965" lon="4.2651701">
	<ele>9.00</ele>
	<time>1970-01-01T00:44:44.030Z</time>
</trkpt>
<trkpt lat="51.3745613" lon="4.2645569">
	<ele>9.00</ele>
	<time>1970-01-01T00:44:51.978Z</time>
</trkpt>
<trkpt lat="51.3746071" lon="4.2640491">
	<ele>9.00</ele>
	<time>1970-01-01T00:44:58.609Z</time>
</trkpt>
<trkpt lat="51.3746529" lon="4.2633581">
	<ele>9.00</ele>
	<time>1970-01-01T00:45:07.431Z</time>
</trkpt>
<trkpt lat="51.3746948" lon="4.2625761">
	<ele>9.00</ele>
	<time>1970-01-01T00:45:17.520Z</time>
</trkpt>
<trkpt lat="51.3746986" lon="4.2617159">
	<ele>9.00</ele>
	<time>1970-01-01T00:45:28.514Z</time>
</trkpt>
<trkpt lat="51.3746490" lon="4.2604461">
	<ele>9.00</ele>
	<time>1970-01-01T00:45:44.808Z</time>
</trkpt>
<trkpt lat="51.3745575" lon="4.2573700">
	<ele>9.00</ele>
	<time>1970-01-01T00:46:24.149Z</time>
</trkpt>
<trkpt lat="51.3744545" lon="4.2546301">
	<ele>9.00</ele>
	<time>1970-01-01T00:46:59.093Z</time>
</trkpt>
<trkpt lat="51.3744469" lon="4.2543340">
	<ele>9.00</ele>
	<time>1970-01-01T00:47:02.935Z</time>
</trkpt>
<trkpt lat="51.3744316" lon="4.2540169">
	<ele>9.00</ele>
	<time>1970-01-01T00:47:06.960Z</time>
</trkpt>
<trkpt lat="51.3744202" lon="4.2538371">
	<ele>9.00</ele>
	<time>1970-01-01T00:47:09.338Z</time>
</trkpt>
<trkpt lat="51.3743477" lon="4.2532482">
	<ele>9.00</ele>
	<time>1970-01-01T00:47:17.022Z</time>
</trkpt>
<trkpt lat="51.3743095" lon="4.2530389">
	<ele>9.00</ele>
	<time>1970-01-01T00:47:19.766Z</time>
</trkpt>
<trkpt lat="51.3742142" lon="4.2526331">
	<ele>9.00</ele>
	<time>1970-01-01T00:47:25.254Z</time>
</trkpt>
<trkpt lat="51.3740768" lon="4.2521882">
	<ele>9.00</ele>
	<time>1970-01-01T00:47:31.657Z</time>
</trkpt>
<trkpt lat="51.3740082" lon="4.2520089">
	<ele>9.00</ele>
	<time>1970-01-01T00:47:34.402Z</time>
</trkpt>
<trkpt lat="51.3738632" lon="4.2516670">
	<ele>9.00</ele>
	<time>1970-01-01T00:47:39.707Z</time>
</trkpt>
<trkpt lat="51.3736992" lon="4.2513580">
	<ele>9.00</ele>
	<time>1970-01-01T00:47:44.830Z</time>
</trkpt>
<trkpt lat="51.3735085" lon="4.2510571">
	<ele>9.00</ele>
	<time>1970-01-01T00:47:50.318Z</time>
</trkpt>
<trkpt lat="51.3733177" lon="4.2508020">
	<ele>9.00</ele>
	<time>1970-01-01T00:47:55.440Z</time>
</trkpt>
<trkpt lat="51.3731117" lon="4.2505841">
	<ele>9.00</ele>
	<time>1970-01-01T00:48:00.380Z</time>
</trkpt>
<trkpt lat="51.3729820" lon="4.2504601">
	<ele>9.00</ele>
	<time>1970-01-01T00:48:03.490Z</time>
</trkpt>
<trkpt lat="51.3727417" lon="4.2502708">
	<ele>9.00</ele>
	<time>1970-01-01T00:48:08.978Z</time>
</trkpt>
<trkpt lat="51.3726311" lon="4.2501979">
	<ele>9.00</ele>
	<time>1970-01-01T00:48:11.540Z</time>
</trkpt>
<trkpt lat="51.3723831" lon="4.2500672">
	<ele>9.00</ele>
	<time>1970-01-01T00:48:16.845Z</time>
</trkpt>
<trkpt lat="51.3722534" lon="4.2500081">
	<ele>9.00</ele>
	<time>1970-01-01T00:48:19.589Z</time>
</trkpt>
<trkpt lat="51.3721123" lon="4.2499599">
	<ele>9.00</ele>
	<time>1970-01-01T00:48:22.516Z</time>
</trkpt>
<trkpt lat="51.3718414" lon="4.2498960">
	<ele>9.00</ele>
	<time>1970-01-01T00:48:28.005Z</time>
</trkpt>
<trkpt lat="51.3715973" lon="4.2498832">
	<ele>9.00</ele>
	<time>1970-01-01T00:48:32.944Z</time>
</trkpt>
<trkpt lat="51.3713722" lon="4.2498932">
	<ele>9.00</ele>
	<time>1970-01-01T00:48:37.518Z</time>
</trkpt>
<trkpt lat="51.3712540" lon="4.2499132">
	<ele>9.00</ele>
	<time>1970-01-01T00:48:39.896Z</time>
</trkpt>
<trkpt lat="51.3709946" lon="4.2499871">
	<ele>9.00</ele>
	<time>1970-01-01T00:48:45.202Z</time>
</trkpt>
<trkpt lat="51.3708458" lon="4.2500458">
	<ele>9.00</ele>
	<time>1970-01-01T00:48:48.312Z</time>
</trkpt>
<trkpt lat="51.3698158" lon="4.2505841">
	<ele>9.00</ele>
	<time>1970-01-01T00:49:10.265Z</time>
</trkpt>
<trkpt lat="51.3687706" lon="4.2511339">
	<ele>9.00</ele>
	<time>1970-01-01T00:49:32.768Z</time>
</trkpt>
<trkpt lat="51.3637314" lon="4.2537999">
	<ele>9.00</ele>
	<time>1970-01-01T00:51:20.706Z</time>
</trkpt>
<trkpt lat="51.3635330" lon="4.2539110">
	<ele>9.00</ele>
	<time>1970-01-01T00:51:24.914Z</time>
</trkpt>
<trkpt lat="51.3634644" lon="4.2539330">
	<ele>9.00</ele>
	<time>1970-01-01T00:51:26.377Z</time>
</trkpt>
<trkpt lat="51.3629074" lon="4.2542372">
	<ele>9.00</ele>
	<time>1970-01-01T00:51:38.269Z</time>
</trkpt>
<trkpt lat="51.3628578" lon="4.2542949">
	<ele>9.00</ele>
	<time>1970-01-01T00:51:39.549Z</time>
</trkpt>
<trkpt lat="51.3624687" lon="4.2545400">
	<ele>9.00</ele>
	<time>1970-01-01T00:51:48.148Z</time>
</trkpt>
<trkpt lat="51.3621941" lon="4.2547770">
	<ele>8.75</ele>
	<time>1970-01-01T00:51:54.158Z</time>
</trkpt>
<trkpt lat="51.3619652" lon="4.2550001">
	<ele>8.00</ele>
	<time>1970-01-01T00:51:58.524Z</time>
</trkpt>
<trkpt lat="51.3617592" lon="4.2552271">
	<ele>8.75</ele>
	<time>1970-01-01T00:52:03.735Z</time>
</trkpt>
<trkpt lat="51.3617249" lon="4.2552848">
	<ele>9.00</ele>
	<time>1970-01-01T00:52:04.935Z</time>
</trkpt>
<trkpt lat="51.3616982" lon="4.2553458">
	<ele>9.00</ele>
	<time>1970-01-01T00:52:05.930Z</time>
</trkpt>
<trkpt lat="51.3616753" lon="4.2554188">
	<ele>9.00</ele>
	<time>1970-01-01T00:52:07.120Z</time>
</trkpt>
<trkpt lat="51.3616524" lon="4.2555599">
	<ele>9.00</ele>
	<time>1970-01-01T00:52:09.089Z</time>
</trkpt>
<trkpt lat="51.3615913" lon="4.2555470">
	<ele>9.00</ele>
	<time>1970-01-01T00:52:10.459Z</time>
</trkpt>
<trkpt lat="51.3615341" lon="4.2555151">
	<ele>9.00</ele>
	<time>1970-01-01T00:52:11.823Z</time>
</trkpt>
<trkpt lat="51.3614769" lon="4.2555399">
	<ele>9.00</ele>
	<time>1970-01-01T00:52:13.182Z</time>
</trkpt>
<trkpt lat="51.3613205" lon="4.2557650">
	<ele>9.00</ele>
	<time>1970-01-01T00:52:17.799Z</time>
</trkpt>
<trkpt lat="51.3606377" lon="4.2568350">
	<ele>9.00</ele>
	<time>1970-01-01T00:52:37.730Z</time>
</trkpt>
<trkpt lat="51.3605690" lon="4.2569451">
	<ele>9.00</ele>
	<time>1970-01-01T00:52:39.772Z</time>
</trkpt>
<trkpt lat="51.3604774" lon="4.2570939">
	<ele>9.00</ele>
	<time>1970-01-01T00:52:42.551Z</time>
</trkpt>
<trkpt lat="51.3604393" lon="4.2571549">
	<ele>9.00</ele>
	<time>1970-01-01T00:52:43.661Z</time>
</trkpt>
<trkpt lat="51.3597641" lon="4.2581968">
	<ele>9.00</ele>
	<time>1970-01-01T00:53:03.003Z</time>
</trkpt>
<trkpt lat="51.3597488" lon="4.2582512">
	<ele>9.00</ele>
	<time>1970-01-01T00:53:03.738Z</time>
</trkpt>
<trkpt lat="51.3597412" lon="4.2583270">
	<ele>9.00</ele>
	<time>1970-01-01T00:53:04.656Z</time>
</trkpt>
<trkpt lat="51.3597298" lon="4.2583532">
	<ele>9.00</ele>
	<time>1970-01-01T00:53:05.023Z</time>
</trkpt>
<trkpt lat="51.3596992" lon="4.2583828">
	<ele>9.00</ele>
	<time>1970-01-01T00:53:05.758Z</time>
</trkpt>
<trkpt lat="51.3595810" lon="4.2584710">
	<ele>9.00</ele>
	<time>1970-01-01T00:53:08.510Z</time>
</trkpt>
<trkpt lat="51.3586121" lon="4.2599888">
	<ele>9.00</ele>
	<time>1970-01-01T00:53:36.176Z</time>
</trkpt>
<trkpt lat="51.3568344" lon="4.2627411">
	<ele>9.00</ele>
	<time>1970-01-01T00:54:26.497Z</time>
</trkpt>
<trkpt lat="51.3558197" lon="4.2643318">
	<ele>9.00</ele>
	<time>1970-01-01T00:54:55.403Z</time>
</trkpt>
<trkpt lat="51.3551102" lon="4.2654662">
	<ele>9.00</ele>
	<time>1970-01-01T00:55:15.894Z</time>
</trkpt>
<trkpt lat="51.3549423" lon="4.2657938">
	<ele>9.00</ele>
	<time>1970-01-01T00:55:21.382Z</time>
</trkpt>
<trkpt lat="51.3547745" lon="4.2661719">
	<ele>8.75</ele>
	<time>1970-01-01T00:55:26.872Z</time>
</trkpt>
<trkpt lat="51.3546028" lon="4.2666249">
	<ele>9.00</ele>
	<time>1970-01-01T00:55:33.760Z</time>
</trkpt>
<trkpt lat="51.3544617" lon="4.2670350">
	<ele>9.00</ele>
	<time>1970-01-01T00:55:39.687Z</time>
</trkpt>
<trkpt lat="51.3543549" lon="4.2673950">
	<ele>9.00</ele>
	<time>1970-01-01T00:55:44.857Z</time>
</trkpt>
<trkpt lat="51.3542824" lon="4.2677059">
	<ele>9.00</ele>
	<time>1970-01-01T00:55:49.095Z</time>
</trkpt>
<trkpt lat="51.3542290" lon="4.2679548">
	<ele>9.00</ele>
	<time>1970-01-01T00:55:52.407Z</time>
</trkpt>
<trkpt lat="51.3541641" lon="4.2683058">
	<ele>9.00</ele>
	<time>1970-01-01T00:55:57.001Z</time>
</trkpt>
<trkpt lat="51.3541069" lon="4.2687330">
	<ele>9.00</ele>
	<time>1970-01-01T00:56:02.693Z</time>
</trkpt>
<trkpt lat="51.3540611" lon="4.2691102">
	<ele>9.00</ele>
	<time>1970-01-01T00:56:07.645Z</time>
</trkpt>
<trkpt lat="51.3540306" lon="4.2695198">
	<ele>8.50</ele>
	<time>1970-01-01T00:56:12.322Z</time>
</trkpt>
<trkpt lat="51.3539696" lon="4.2705402">
	<ele>9.00</ele>
	<time>1970-01-01T00:56:25.690Z</time>
</trkpt>
<trkpt lat="51.3539734" lon="4.2706199">
	<ele>9.00</ele>
	<time>1970-01-01T00:56:26.809Z</time>
</trkpt>
<trkpt lat="51.3540077" lon="4.2707620">
	<ele>9.00</ele>
	<time>1970-01-01T00:56:28.857Z</time>
</trkpt>
<trkpt lat="51.3540077" lon="4.2708149">
	<ele>9.00</ele>
	<time>1970-01-01T00:56:29.601Z</time>
</trkpt>
<trkpt lat="51.3540039" lon="4.2708402">
	<ele>9.00</ele>
	<time>1970-01-01T00:56:29.973Z</time>
</trkpt>
<trkpt lat="51.3539734" lon="4.2708969">
	<ele>9.00</ele>
	<time>1970-01-01T00:56:30.902Z</time>
</trkpt>
<trkpt lat="51.3539505" lon="4.2709532">
	<ele>9.00</ele>
	<time>1970-01-01T00:56:31.830Z</time>
</trkpt>
<trkpt lat="51.3539429" lon="4.2709889">
	<ele>9.00</ele>
	<time>1970-01-01T00:56:32.387Z</time>
</trkpt>
<trkpt lat="51.3538742" lon="4.2721639">
	<ele>9.00</ele>
	<time>1970-01-01T00:56:47.530Z</time>
</trkpt>
<trkpt lat="51.3537407" lon="4.2743540">
	<ele>9.00</ele>
	<time>1970-01-01T00:57:15.607Z</time>
</trkpt>
<trkpt lat="51.3534622" lon="4.2788720">
	<ele>9.00</ele>
	<time>1970-01-01T00:58:13.441Z</time>
</trkpt>
<trkpt lat="51.3533554" lon="4.2806721">
	<ele>8.75</ele>
	<time>1970-01-01T00:58:35.526Z</time>
</trkpt>
<trkpt lat="51.3532944" lon="4.2806711">
	<ele>9.00</ele>
	<time>1970-01-01T00:58:36.876Z</time>
</trkpt>
<trkpt lat="51.3532524" lon="4.2806692">
	<ele>9.00</ele>
	<time>1970-01-01T00:58:37.838Z</time>
</trkpt>
<trkpt lat="51.3532372" lon="4.2806878">
	<ele>9.00</ele>
	<time>1970-01-01T00:58:38.222Z</time>
</trkpt>
<trkpt lat="51.3532181" lon="4.2810202">
	<ele>9.00</ele>
	<time>1970-01-01T00:58:42.613Z</time>
</trkpt>
<trkpt lat="51.3532028" lon="4.2811241">
	<ele>9.00</ele>
	<time>1970-01-01T00:58:43.941Z</time>
</trkpt>
<trkpt lat="51.3531761" lon="4.2812948">
	<ele>9.00</ele>
	<time>1970-01-01T00:58:46.211Z</time>
</trkpt>
<trkpt lat="51.3531570" lon="4.2813182">
	<ele>9.00</ele>
	<time>1970-01-01T00:58:46.777Z</time>
</trkpt>
<trkpt lat="51.3531265" lon="4.2813158">
	<ele>9.00</ele>
	<time>1970-01-01T00:58:47.531Z</time>
</trkpt>
<trkpt lat="51.3530960" lon="4.2813148">
	<ele>9.00</ele>
	<time>1970-01-01T00:58:48.096Z</time>
</trkpt>
<trkpt lat="51.3530693" lon="4.2813392">
	<ele>9.00</ele>
	<time>1970-01-01T00:58:48.660Z</time>
</trkpt>
<trkpt lat="51.3528557" lon="4.2818131">
	<ele>9.00</ele>
	<time>1970-01-01T00:58:56.332Z</time>
</trkpt>
<trkpt lat="51.3528442" lon="4.2818799">
	<ele>9.00</ele>
	<time>1970-01-01T00:58:57.263Z</time>
</trkpt>
<trkpt lat="51.3528290" lon="4.2819591">
	<ele>9.00</ele>
	<time>1970-01-01T00:58:58.379Z</time>
</trkpt>
<trkpt lat="51.3528099" lon="4.2820082">
	<ele>9.00</ele>
	<time>1970-01-01T00:58:59.123Z</time>
</trkpt>
<trkpt lat="51.3527527" lon="4.2820559">
	<ele>9.00</ele>
	<time>1970-01-01T00:59:00.423Z</time>
</trkpt>
<trkpt lat="51.3527336" lon="4.2820830">
	<ele>9.00</ele>
	<time>1970-01-01T00:59:00.980Z</time>
</trkpt>
<trkpt lat="51.3525314" lon="4.2823930">
	<ele>9.00</ele>
	<time>1970-01-01T00:59:06.721Z</time>
</trkpt>
<trkpt lat="51.3523178" lon="4.2826571">
	<ele>9.00</ele>
	<time>1970-01-01T00:59:12.258Z</time>
</trkpt>
<trkpt lat="51.3520508" lon="4.2829151">
	<ele>9.25</ele>
	<time>1970-01-01T00:59:19.136Z</time>
</trkpt>
<trkpt lat="51.3518410" lon="4.2830830">
	<ele>9.50</ele>
	<time>1970-01-01T00:59:24.505Z</time>
</trkpt>
<trkpt lat="51.3516159" lon="4.2832179">
	<ele>9.00</ele>
	<time>1970-01-01T00:59:29.243Z</time>
</trkpt>
<trkpt lat="51.3513794" lon="4.2833142">
	<ele>10.00</ele>
	<time>1970-01-01T00:59:35.527Z</time>
</trkpt>
<trkpt lat="51.3511276" lon="4.2833772">
	<ele>10.00</ele>
	<time>1970-01-01T00:59:41.674Z</time>
</trkpt>
<trkpt lat="51.3508415" lon="4.2834072">
	<ele>10.25</ele>
	<time>1970-01-01T00:59:48.840Z</time>
</trkpt>
<trkpt lat="51.3505402" lon="4.2833800">
	<ele>10.00</ele>
	<time>1970-01-01T00:59:55.372Z</time>
</trkpt>
<trkpt lat="51.3502960" lon="4.2833152">
	<ele>10.75</ele>
	<time>1970-01-01T01:00:02.036Z</time>
</trkpt>
<trkpt lat="51.3501816" lon="4.2832699">
	<ele>10.75</ele>
	<time>1970-01-01T01:00:04.980Z</time>
</trkpt>
<trkpt lat="51.3499794" lon="4.2831779">
	<ele>11.00</ele>
	<time>1970-01-01T01:00:10.375Z</time>
</trkpt>
<trkpt lat="51.3480721" lon="4.2822299">
	<ele>11.00</ele>
	<time>1970-01-01T01:00:54.712Z</time>
</trkpt>
<trkpt lat="51.3477592" lon="4.2821612">
	<ele>11.00</ele>
	<time>1970-01-01T01:01:01.244Z</time>
</trkpt>
<trkpt lat="51.3477516" lon="4.2821708">
	<ele>11.00</ele>
	<time>1970-01-01T01:01:01.430Z</time>
</trkpt>
<trkpt lat="51.3477287" lon="4.2822452">
	<ele>11.00</ele>
	<time>1970-01-01T01:01:02.545Z</time>
</trkpt>
<trkpt lat="51.3477058" lon="4.2823138">
	<ele>11.50</ele>
	<time>1970-01-01T01:01:03.626Z</time>
</trkpt>
<trkpt lat="51.3476257" lon="4.2822838">
	<ele>11.25</ele>
	<time>1970-01-01T01:01:05.411Z</time>
</trkpt>
<trkpt lat="51.3475952" lon="4.2824092">
	<ele>11.50</ele>
	<time>1970-01-01T01:01:07.321Z</time>
</trkpt>
<trkpt lat="51.3475723" lon="4.2824540">
	<ele>11.50</ele>
	<time>1970-01-01T01:01:08.162Z</time>
</trkpt>
<trkpt lat="51.3475952" lon="4.2824092">
	<ele>11.50</ele>
	<time>1970-01-01T01:01:08.894Z</time>
</trkpt>
<trkpt lat="51.3476257" lon="4.2822838">
	<ele>11.25</ele>
	<time>1970-01-01T01:01:10.427Z</time>
</trkpt>
<trkpt lat="51.3475227" lon="4.2822390">
	<ele>11.00</ele>
	<time>1970-01-01T01:01:12.349Z</time>
</trkpt>
<trkpt lat="51.3475113" lon="4.2822380">
	<ele>11.00</ele>
	<time>1970-01-01T01:01:12.510Z</time>
</trkpt>
<trkpt lat="51.3469429" lon="4.2820010">
	<ele>11.25</ele>
	<time>1970-01-01T01:01:23.961Z</time>
</trkpt>
<trkpt lat="51.3468971" lon="4.2819762">
	<ele>11.25</ele>
	<time>1970-01-01T01:01:24.852Z</time>
</trkpt>
<trkpt lat="51.3468704" lon="4.2819352">
	<ele>11.25</ele>
	<time>1970-01-01T01:01:25.566Z</time>
</trkpt>
<trkpt lat="51.3468590" lon="4.2819109">
	<ele>11.25</ele>
	<time>1970-01-01T01:01:25.923Z</time>
</trkpt>
<trkpt lat="51.3467598" lon="4.2818918">
	<ele>10.50</ele>
	<time>1970-01-01T01:01:27.531Z</time>
</trkpt>
<trkpt lat="51.3461838" lon="4.2818041">
	<ele>10.50</ele>
	<time>1970-01-01T01:01:37.505Z</time>
</trkpt>
<trkpt lat="51.3459740" lon="4.2817688">
	<ele>10.50</ele>
	<time>1970-01-01T01:01:41.464Z</time>
</trkpt>
<trkpt lat="51.3459587" lon="4.2817898">
	<ele>10.25</ele>
	<time>1970-01-01T01:01:41.775Z</time>
</trkpt>
<trkpt lat="51.3459320" lon="4.2818332">
	<ele>9.75</ele>
	<time>1970-01-01T01:01:42.325Z</time>
</trkpt>
<trkpt lat="51.3453178" lon="4.2817421">
	<ele>10.25</ele>
	<time>1970-01-01T01:01:53.650Z</time>
</trkpt>
<trkpt lat="51.3452492" lon="4.2817640">
	<ele>10.25</ele>
	<time>1970-01-01T01:01:55.011Z</time>
</trkpt>
<trkpt lat="51.3451881" lon="4.2818408">
	<ele>10.00</ele>
	<time>1970-01-01T01:01:56.287Z</time>
</trkpt>
<trkpt lat="51.3451500" lon="4.2819519">
	<ele>9.75</ele>
	<time>1970-01-01T01:01:57.645Z</time>
</trkpt>
<trkpt lat="51.3451042" lon="4.2819438">
	<ele>10.00</ele>
	<time>1970-01-01T01:01:58.463Z</time>
</trkpt>
<trkpt lat="51.3450356" lon="4.2819319">
	<ele>10.75</ele>
	<time>1970-01-01T01:02:00.103Z</time>
</trkpt>
<trkpt lat="51.3450241" lon="4.2818370">
	<ele>10.75</ele>
	<time>1970-01-01T01:02:01.525Z</time>
</trkpt>
<trkpt lat="51.3449821" lon="4.2817640">
	<ele>10.75</ele>
	<time>1970-01-01T01:02:02.938Z</time>
</trkpt>
<trkpt lat="51.3449364" lon="4.2817178">
	<ele>10.75</ele>
	<time>1970-01-01T01:02:04.141Z</time>
</trkpt>
<trkpt lat="51.3447838" lon="4.2816968">
	<ele>10.75</ele>
	<time>1970-01-01T01:02:07.516Z</time>
</trkpt>
<trkpt lat="51.3447266" lon="4.2815962">
	<ele>11.00</ele>
	<time>1970-01-01T01:02:09.423Z</time>
</trkpt>
<trkpt lat="51.3447113" lon="4.2815681">
	<ele>10.75</ele>
	<time>1970-01-01T01:02:10.006Z</time>
</trkpt>
<trkpt lat="51.3446236" lon="4.2815552">
	<ele>10.75</ele>
	<time>1970-01-01T01:02:11.943Z</time>
</trkpt>
<trkpt lat="51.3439445" lon="4.2814412">
	<ele>11.25</ele>
	<time>1970-01-01T01:02:28.052Z</time>
</trkpt>
<trkpt lat="51.3437424" lon="4.2814221">
	<ele>11.00</ele>
	<time>1970-01-01T01:02:32.336Z</time>
</trkpt>
<trkpt lat="51.3437347" lon="4.2814398">
	<ele>11.00</ele>
	<time>1970-01-01T01:02:32.708Z</time>
</trkpt>
<trkpt lat="51.3437042" lon="4.2815099">
	<ele>10.25</ele>
	<time>1970-01-01T01:02:33.611Z</time>
</trkpt>
<trkpt lat="51.3435936" lon="4.2815132">
	<ele>10.00</ele>
	<time>1970-01-01T01:02:35.332Z</time>
</trkpt>
<trkpt lat="51.3431625" lon="4.2814441">
	<ele>10.50</ele>
	<time>1970-01-01T01:02:43.499Z</time>
</trkpt>
<trkpt lat="51.3431168" lon="4.2814431">
	<ele>10.50</ele>
	<time>1970-01-01T01:02:44.365Z</time>
</trkpt>
<trkpt lat="51.3429985" lon="4.2814641">
	<ele>10.50</ele>
	<time>1970-01-01T01:02:46.625Z</time>
</trkpt>
<trkpt lat="51.3427963" lon="4.2815251">
	<ele>10.25</ele>
	<time>1970-01-01T01:02:50.402Z</time>
</trkpt>
<trkpt lat="51.3427734" lon="4.2815518">
	<ele>10.25</ele>
	<time>1970-01-01T01:02:50.901Z</time>
</trkpt>
<trkpt lat="51.3427582" lon="4.2815928">
	<ele>10.25</ele>
	<time>1970-01-01T01:02:51.402Z</time>
</trkpt>
<trkpt lat="51.3427505" lon="4.2816572">
	<ele>10.00</ele>
	<time>1970-01-01T01:02:52.183Z</time>
</trkpt>
<trkpt lat="51.3427391" lon="4.2816730">
	<ele>10.00</ele>
	<time>1970-01-01T01:02:52.497Z</time>
</trkpt>
<trkpt lat="51.3426971" lon="4.2816701">
	<ele>10.25</ele>
	<time>1970-01-01T01:02:53.343Z</time>
</trkpt>
<trkpt lat="51.3426170" lon="4.2816639">
	<ele>10.50</ele>
	<time>1970-01-01T01:02:54.987Z</time>
</trkpt>
<trkpt lat="51.3425865" lon="4.2816710">
	<ele>10.50</ele>
	<time>1970-01-01T01:02:55.535Z</time>
</trkpt>
<trkpt lat="51.3424225" lon="4.2817822">
	<ele>11.00</ele>
	<time>1970-01-01T01:02:59.742Z</time>
</trkpt>
<trkpt lat="51.3422012" lon="4.2820082">
	<ele>11.25</ele>
	<time>1970-01-01T01:03:06.077Z</time>
</trkpt>
<trkpt lat="51.3420372" lon="4.2822299">
	<ele>11.50</ele>
	<time>1970-01-01T01:03:11.469Z</time>
</trkpt>
<trkpt lat="51.3417931" lon="4.2826672">
	<ele>10.75</ele>
	<time>1970-01-01T01:03:18.666Z</time>
</trkpt>
<trkpt lat="51.3416100" lon="4.2830348">
	<ele>10.75</ele>
	<time>1970-01-01T01:03:24.533Z</time>
</trkpt>
<trkpt lat="51.3413124" lon="4.2836251">
	<ele>10.00</ele>
	<time>1970-01-01T01:03:32.579Z</time>
</trkpt>
<trkpt lat="51.3410912" lon="4.2840252">
	<ele>10.00</ele>
	<time>1970-01-01T01:03:38.578Z</time>
</trkpt>
<trkpt lat="51.3407249" lon="4.2844539">
	<ele>10.00</ele>
	<time>1970-01-01T01:03:47.028Z</time>
</trkpt>
<trkpt lat="51.3405151" lon="4.2846422">
	<ele>9.75</ele>
	<time>1970-01-01T01:03:51.418Z</time>
</trkpt>
<trkpt lat="51.3402901" lon="4.2847700">
	<ele>9.00</ele>
	<time>1970-01-01T01:03:55.189Z</time>
</trkpt>
<trkpt lat="51.3400955" lon="4.2848568">
	<ele>9.50</ele>
	<time>1970-01-01T01:03:58.866Z</time>
</trkpt>
<trkpt lat="51.3397217" lon="4.2849660">
	<ele>9.00</ele>
	<time>1970-01-01T01:04:05.268Z</time>
</trkpt>
<trkpt lat="51.3396645" lon="4.2850480">
	<ele>9.00</ele>
	<time>1970-01-01T01:04:06.696Z</time>
</trkpt>
<trkpt lat="51.3395653" lon="4.2852311">
	<ele>9.00</ele>
	<time>1970-01-01T01:04:09.439Z</time>
</trkpt>
<trkpt lat="51.3395195" lon="4.2853198">
	<ele>9.00</ele>
	<time>1970-01-01T01:04:10.748Z</time>
</trkpt>
<trkpt lat="51.3393745" lon="4.2851300">
	<ele>9.00</ele>
	<time>1970-01-01T01:04:14.236Z</time>
</trkpt>
<trkpt lat="51.3390617" lon="4.2847600">
	<ele>9.00</ele>
	<time>1970-01-01T01:04:21.562Z</time>
</trkpt>
<trkpt lat="51.3389206" lon="4.2846122">
	<ele>9.00</ele>
	<time>1970-01-01T01:04:24.862Z</time>
</trkpt>
<trkpt lat="51.3386345" lon="4.2843399">
	<ele>9.00</ele>
	<time>1970-01-01T01:04:31.368Z</time>
</trkpt>
<trkpt lat="51.3380280" lon="4.2838688">
	<ele>9.00</ele>
	<time>1970-01-01T01:04:44.775Z</time>
</trkpt>
<trkpt lat="51.3373528" lon="4.2835288">
	<ele>9.00</ele>
	<time>1970-01-01T01:04:59.073Z</time>
</trkpt>
<trkpt lat="51.3368912" lon="4.2833471">
	<ele>9.00</ele>
	<time>1970-01-01T01:05:08.716Z</time>
</trkpt>
<trkpt lat="51.3362122" lon="4.2832112">
	<ele>9.00</ele>
	<time>1970-01-01T01:05:22.579Z</time>
</trkpt>
<trkpt lat="51.3354073" lon="4.2832260">
	<ele>9.00</ele>
	<time>1970-01-01T01:05:39.023Z</time>
</trkpt>
<trkpt lat="51.3353310" lon="4.2832398">
	<ele>9.00</ele>
	<time>1970-01-01T01:05:40.486Z</time>
</trkpt>
<trkpt lat="51.3337402" lon="4.2835631">
	<ele>9.00</ele>
	<time>1970-01-01T01:06:13.039Z</time>
</trkpt>
<trkpt lat="51.3330002" lon="4.2837372">
	<ele>9.00</ele>
	<time>1970-01-01T01:06:28.222Z</time>
</trkpt>
<trkpt lat="51.3319397" lon="4.2839599">
	<ele>9.00</ele>
	<time>1970-01-01T01:06:49.992Z</time>
</trkpt>
<trkpt lat="51.3311958" lon="4.2841282">
	<ele>8.25</ele>
	<time>1970-01-01T01:07:03.235Z</time>
</trkpt>
<trkpt lat="51.3301201" lon="4.2843571">
	<ele>8.75</ele>
	<time>1970-01-01T01:07:26.075Z</time>
</trkpt>
<trkpt lat="51.3275948" lon="4.2849150">
	<ele>9.00</ele>
	<time>1970-01-01T01:08:19.651Z</time>
</trkpt>
<trkpt lat="51.3257942" lon="4.2852960">
	<ele>9.00</ele>
	<time>1970-01-01T01:08:56.692Z</time>
</trkpt>
<trkpt lat="51.3248825" lon="4.2855091">
	<ele>9.00</ele>
	<time>1970-01-01T01:09:15.544Z</time>
</trkpt>
<trkpt lat="51.3245354" lon="4.2855701">
	<ele>9.00</ele>
	<time>1970-01-01T01:09:22.680Z</time>
</trkpt>
<trkpt lat="51.3233871" lon="4.2858071">
	<ele>8.00</ele>
	<time>1970-01-01T01:09:42.714Z</time>
</trkpt>
<trkpt lat="51.3233795" lon="4.2856970">
	<ele>8.25</ele>
	<time>1970-01-01T01:09:44.167Z</time>
</trkpt>
<trkpt lat="51.3233643" lon="4.2854972">
	<ele>9.00</ele>
	<time>1970-01-01T01:09:47.332Z</time>
</trkpt>
<trkpt lat="51.3233528" lon="4.2853580">
	<ele>8.75</ele>
	<time>1970-01-01T01:09:49.379Z</time>
</trkpt>
<trkpt lat="51.3230515" lon="4.2854142">
	<ele>9.00</ele>
	<time>1970-01-01T01:09:56.656Z</time>
</trkpt>
<trkpt lat="51.3229141" lon="4.2853918">
	<ele>9.00</ele>
	<time>1970-01-01T01:09:59.756Z</time>
</trkpt>
<trkpt lat="51.3222008" lon="4.2855902">
	<ele>9.00</ele>
	<time>1970-01-01T01:10:15.570Z</time>
</trkpt>
<trkpt lat="51.3208656" lon="4.2858911">
	<ele>9.00</ele>
	<time>1970-01-01T01:10:43.733Z</time>
</trkpt>
<trkpt lat="51.3207054" lon="4.2858748">
	<ele>9.00</ele>
	<time>1970-01-01T01:10:47.060Z</time>
</trkpt>
<trkpt lat="51.3206177" lon="4.2858891">
	<ele>9.00</ele>
	<time>1970-01-01T01:10:48.906Z</time>
</trkpt>
<trkpt lat="51.3205795" lon="4.2859030">
	<ele>9.00</ele>
	<time>1970-01-01T01:10:49.644Z</time>
</trkpt>
<trkpt lat="51.3204994" lon="4.2859988">
	<ele>9.00</ele>
	<time>1970-01-01T01:10:51.672Z</time>
</trkpt>
<trkpt lat="51.3204765" lon="4.2860112">
	<ele>9.00</ele>
	<time>1970-01-01T01:10:52.040Z</time>
</trkpt>
<trkpt lat="51.3204460" lon="4.2860041">
	<ele>9.00</ele>
	<time>1970-01-01T01:10:52.777Z</time>
</trkpt>
<trkpt lat="51.3204155" lon="4.2859788">
	<ele>9.00</ele>
	<time>1970-01-01T01:10:53.514Z</time>
</trkpt>
<trkpt lat="51.3203621" lon="4.2859368">
	<ele>9.00</ele>
	<time>1970-01-01T01:10:54.803Z</time>
</trkpt>
<trkpt lat="51.3202934" lon="4.2859268">
	<ele>9.00</ele>
	<time>1970-01-01T01:10:56.275Z</time>
</trkpt>
<trkpt lat="51.3201103" lon="4.2860351">
	<ele>9.00</ele>
	<time>1970-01-01T01:11:00.320Z</time>
</trkpt>
<trkpt lat="51.3199463" lon="4.2860880">
	<ele>9.00</ele>
	<time>1970-01-01T01:11:03.810Z</time>
</trkpt>
<trkpt lat="51.3160706" lon="4.2869229">
	<ele>9.00</ele>
	<time>1970-01-01T01:12:23.460Z</time>
</trkpt>
<trkpt lat="51.3145027" lon="4.2872610">
	<ele>9.00</ele>
	<time>1970-01-01T01:12:55.659Z</time>
</trkpt>
<trkpt lat="51.3143158" lon="4.2872739">
	<ele>9.00</ele>
	<time>1970-01-01T01:12:59.501Z</time>
</trkpt>
<trkpt lat="51.3141861" lon="4.2872968">
	<ele>9.00</ele>
	<time>1970-01-01T01:13:02.245Z</time>
</trkpt>
<trkpt lat="51.3141251" lon="4.2873011">
	<ele>8.75</ele>
	<time>1970-01-01T01:13:03.436Z</time>
</trkpt>
<trkpt lat="51.3140793" lon="4.2873149">
	<ele>8.75</ele>
	<time>1970-01-01T01:13:04.291Z</time>
</trkpt>
<trkpt lat="51.3139114" lon="4.2873888">
	<ele>8.25</ele>
	<time>1970-01-01T01:13:07.165Z</time>
</trkpt>
<trkpt lat="51.3106766" lon="4.2880840">
	<ele>8.75</ele>
	<time>1970-01-01T01:14:13.052Z</time>
</trkpt>
<trkpt lat="51.3098259" lon="4.2882719">
	<ele>8.50</ele>
	<time>1970-01-01T01:14:29.777Z</time>
</trkpt>
<trkpt lat="51.3094215" lon="4.2883968">
	<ele>8.75</ele>
	<time>1970-01-01T01:14:38.515Z</time>
</trkpt>
<trkpt lat="51.3092079" lon="4.2884798">
	<ele>8.75</ele>
	<time>1970-01-01T01:14:43.023Z</time>
</trkpt>
<trkpt lat="51.3088531" lon="4.2886648">
	<ele>9.00</ele>
	<time>1970-01-01T01:14:51.365Z</time>
</trkpt>
<trkpt lat="51.3083229" lon="4.2890339">
	<ele>9.00</ele>
	<time>1970-01-01T01:15:03.845Z</time>
</trkpt>
<trkpt lat="51.3081207" lon="4.2891622">
	<ele>9.00</ele>
	<time>1970-01-01T01:15:08.372Z</time>
</trkpt>
<trkpt lat="51.3077316" lon="4.2895341">
	<ele>8.00</ele>
	<time>1970-01-01T01:15:15.813Z</time>
</trkpt>
<trkpt lat="51.3076630" lon="4.2896008">
	<ele>8.00</ele>
	<time>1970-01-01T01:15:17.224Z</time>
</trkpt>
<trkpt lat="51.3068810" lon="4.2900639">
	<ele>7.75</ele>
	<time>1970-01-01T01:15:31.950Z</time>
</trkpt>
<trkpt lat="51.3066292" lon="4.2903671">
	<ele>6.75</ele>
	<time>1970-01-01T01:15:36.679Z</time>
</trkpt>
<trkpt lat="51.3065948" lon="4.2904272">
	<ele>6.50</ele>
	<time>1970-01-01T01:15:37.482Z</time>
</trkpt>
<trkpt lat="51.3065872" lon="4.2904830">
	<ele>6.50</ele>
	<time>1970-01-01T01:15:38.025Z</time>
</trkpt>
<trkpt lat="51.3066063" lon="4.2905359">
	<ele>6.75</ele>
	<time>1970-01-01T01:15:38.610Z</time>
</trkpt>
<trkpt lat="51.3066368" lon="4.2907438">
	<ele>7.50</ele>
	<time>1970-01-01T01:15:41.337Z</time>
</trkpt>
<trkpt lat="51.3066483" lon="4.2908621">
	<ele>8.00</ele>
	<time>1970-01-01T01:15:43.026Z</time>
</trkpt>
<trkpt lat="51.3066368" lon="4.2909541">
	<ele>8.00</ele>
	<time>1970-01-01T01:15:44.489Z</time>
</trkpt>
<trkpt lat="51.3066101" lon="4.2910509">
	<ele>8.00</ele>
	<time>1970-01-01T01:15:45.938Z</time>
</trkpt>
<trkpt lat="51.3062897" lon="4.2917690">
	<ele>8.00</ele>
	<time>1970-01-01T01:15:58.333Z</time>
</trkpt>
<trkpt lat="51.3062057" lon="4.2920351">
	<ele>8.00</ele>
	<time>1970-01-01T01:16:02.403Z</time>
</trkpt>
<trkpt lat="51.3061066" lon="4.2924709">
	<ele>8.00</ele>
	<time>1970-01-01T01:16:08.521Z</time>
</trkpt>
<trkpt lat="51.3060074" lon="4.2927952">
	<ele>8.00</ele>
	<time>1970-01-01T01:16:13.249Z</time>
</trkpt>
<trkpt lat="51.3059845" lon="4.2928648">
	<ele>8.00</ele>
	<time>1970-01-01T01:16:14.378Z</time>
</trkpt>
<trkpt lat="51.3056946" lon="4.2935119">
	<ele>8.50</ele>
	<time>1970-01-01T01:16:25.961Z</time>
</trkpt>
<trkpt lat="51.3045921" lon="4.2959871">
	<ele>8.25</ele>
	<time>1970-01-01T01:17:05.191Z</time>
</trkpt>
<trkpt lat="51.3025627" lon="4.3004560">
	<ele>8.50</ele>
	<time>1970-01-01T01:18:17.067Z</time>
</trkpt>
<trkpt lat="51.3025284" lon="4.3005090">
	<ele>8.75</ele>
	<time>1970-01-01T01:18:18.054Z</time>
</trkpt>
<trkpt lat="51.3024902" lon="4.3006349">
	<ele>9.00</ele>
	<time>1970-01-01T01:18:20.171Z</time>
</trkpt>
<trkpt lat="51.3022995" lon="4.3010731">
	<ele>9.00</ele>
	<time>1970-01-01T01:18:27.768Z</time>
</trkpt>
<trkpt lat="51.3022652" lon="4.3011050">
	<ele>9.00</ele>
	<time>1970-01-01T01:18:28.572Z</time>
</trkpt>
<trkpt lat="51.3020363" lon="4.3010941">
	<ele>9.00</ele>
	<time>1970-01-01T01:18:33.727Z</time>
</trkpt>
<trkpt lat="51.3019676" lon="4.3011022">
	<ele>9.00</ele>
	<time>1970-01-01T01:18:35.097Z</time>
</trkpt>
<trkpt lat="51.3016205" lon="4.3011861">
	<ele>9.00</ele>
	<time>1970-01-01T01:18:42.629Z</time>
</trkpt>
<trkpt lat="51.3015404" lon="4.3012180">
	<ele>9.00</ele>
	<time>1970-01-01T01:18:44.347Z</time>
</trkpt>
<trkpt lat="51.3014679" lon="4.3012819">
	<ele>9.00</ele>
	<time>1970-01-01T01:18:46.058Z</time>
</trkpt>
<trkpt lat="51.3013840" lon="4.3014002">
	<ele>8.75</ele>
	<time>1970-01-01T01:18:48.174Z</time>
</trkpt>
<trkpt lat="51.3013420" lon="4.3014970">
	<ele>8.50</ele>
	<time>1970-01-01T01:18:49.493Z</time>
</trkpt>
<trkpt lat="51.3012047" lon="4.3018012">
	<ele>8.25</ele>
	<time>1970-01-01T01:18:53.581Z</time>
</trkpt>
<trkpt lat="51.3011665" lon="4.3019261">
	<ele>8.25</ele>
	<time>1970-01-01T01:18:55.192Z</time>
</trkpt>
<trkpt lat="51.3011589" lon="4.3021150">
	<ele>8.50</ele>
	<time>1970-01-01T01:18:57.465Z</time>
</trkpt>
<trkpt lat="51.3011894" lon="4.3023109">
	<ele>8.50</ele>
	<time>1970-01-01T01:18:59.928Z</time>
</trkpt>
<trkpt lat="51.3012390" lon="4.3024292">
	<ele>8.75</ele>
	<time>1970-01-01T01:19:01.827Z</time>
</trkpt>
<trkpt lat="51.3012886" lon="4.3025069">
	<ele>9.00</ele>
	<time>1970-01-01T01:19:03.459Z</time>
</trkpt>
<trkpt lat="51.3013077" lon="4.3025732">
	<ele>9.00</ele>
	<time>1970-01-01T01:19:04.471Z</time>
</trkpt>
<trkpt lat="51.3013077" lon="4.3026462">
	<ele>9.00</ele>
	<time>1970-01-01T01:19:05.479Z</time>
</trkpt>
<trkpt lat="51.3012657" lon="4.3031468">
	<ele>9.00</ele>
	<time>1970-01-01T01:19:12.412Z</time>
</trkpt>
<trkpt lat="51.3012352" lon="4.3034110">
	<ele>9.00</ele>
	<time>1970-01-01T01:19:16.105Z</time>
</trkpt>
<trkpt lat="51.3011818" lon="4.3036470">
	<ele>9.00</ele>
	<time>1970-01-01T01:19:19.567Z</time>
</trkpt>
<trkpt lat="51.3009453" lon="4.3042798">
	<ele>9.00</ele>
	<time>1970-01-01T01:19:29.236Z</time>
</trkpt>
<trkpt lat="51.3008766" lon="4.3043880">
	<ele>9.00</ele>
	<time>1970-01-01T01:19:31.301Z</time>
</trkpt>
<trkpt lat="51.3007622" lon="4.3046379">
	<ele>9.00</ele>
	<time>1970-01-01T01:19:35.415Z</time>
</trkpt>
<trkpt lat="51.3006973" lon="4.3048549">
	<ele>9.00</ele>
	<time>1970-01-01T01:19:38.582Z</time>
</trkpt>
<trkpt lat="51.3007317" lon="4.3048878">
	<ele>9.00</ele>
	<time>1970-01-01T01:19:39.512Z</time>
</trkpt>
<trkpt lat="51.3006973" lon="4.3048549">
	<ele>9.00</ele>
	<time>1970-01-01T01:19:40.427Z</time>
</trkpt>
<trkpt lat="51.3006134" lon="4.3050981">
	<ele>9.00</ele>
	<time>1970-01-01T01:19:43.903Z</time>
</trkpt>
<trkpt lat="51.2988625" lon="4.3089938">
	<ele>9.00</ele>
	<time>1970-01-01T01:20:45.007Z</time>
</trkpt>
<trkpt lat="51.2988205" lon="4.3090630">
	<ele>9.00</ele>
	<time>1970-01-01T01:20:46.287Z</time>
</trkpt>
<trkpt lat="51.2987671" lon="4.3091202">
	<ele>9.00</ele>
	<time>1970-01-01T01:20:47.568Z</time>
</trkpt>
<trkpt lat="51.2987175" lon="4.3091602">
	<ele>9.00</ele>
	<time>1970-01-01T01:20:48.666Z</time>
</trkpt>
<trkpt lat="51.2986221" lon="4.3091888">
	<ele>9.00</ele>
	<time>1970-01-01T01:20:50.678Z</time>
</trkpt>
<trkpt lat="51.2985687" lon="4.3091869">
	<ele>9.00</ele>
	<time>1970-01-01T01:20:51.776Z</time>
</trkpt>
<trkpt lat="51.2985153" lon="4.3091688">
	<ele>9.00</ele>
	<time>1970-01-01T01:20:52.873Z</time>
</trkpt>
<trkpt lat="51.2984657" lon="4.3091350">
	<ele>9.00</ele>
	<time>1970-01-01T01:20:53.971Z</time>
</trkpt>
<trkpt lat="51.2982292" lon="4.3089170">
	<ele>9.00</ele>
	<time>1970-01-01T01:20:59.642Z</time>
</trkpt>
<trkpt lat="51.2981758" lon="4.3088932">
	<ele>9.00</ele>
	<time>1970-01-01T01:21:00.740Z</time>
</trkpt>
<trkpt lat="51.2981110" lon="4.3088808">
	<ele>9.00</ele>
	<time>1970-01-01T01:21:02.021Z</time>
</trkpt>
<trkpt lat="51.2980537" lon="4.3088861">
	<ele>9.00</ele>
	<time>1970-01-01T01:21:03.301Z</time>
</trkpt>
<trkpt lat="51.2979202" lon="4.3089538">
	<ele>9.00</ele>
	<time>1970-01-01T01:21:06.046Z</time>
</trkpt>
<trkpt lat="51.2978630" lon="4.3090091">
	<ele>9.00</ele>
	<time>1970-01-01T01:21:07.509Z</time>
</trkpt>
<trkpt lat="51.2978096" lon="4.3091011">
	<ele>9.00</ele>
	<time>1970-01-01T01:21:09.156Z</time>
</trkpt>
<trkpt lat="51.2973747" lon="4.3101859">
	<ele>9.00</ele>
	<time>1970-01-01T01:21:25.621Z</time>
</trkpt>
<trkpt lat="51.2968903" lon="4.3115902">
	<ele>9.00</ele>
	<time>1970-01-01T01:21:46.111Z</time>
</trkpt>
<trkpt lat="51.2968712" lon="4.3117571">
	<ele>8.75</ele>
	<time>1970-01-01T01:21:48.156Z</time>
</trkpt>
<trkpt lat="51.2968750" lon="4.3118382">
	<ele>8.75</ele>
	<time>1970-01-01T01:21:49.185Z</time>
</trkpt>
<trkpt lat="51.2968903" lon="4.3119202">
	<ele>8.75</ele>
	<time>1970-01-01T01:21:50.218Z</time>
</trkpt>
<trkpt lat="51.2969208" lon="4.3120050">
	<ele>8.75</ele>
	<time>1970-01-01T01:21:51.428Z</time>
</trkpt>
<trkpt lat="51.2969666" lon="4.3120980">
	<ele>9.00</ele>
	<time>1970-01-01T01:21:52.920Z</time>
</trkpt>
<trkpt lat="51.2971306" lon="4.3123732">
	<ele>9.00</ele>
	<time>1970-01-01T01:21:57.942Z</time>
</trkpt>
<trkpt lat="51.2971573" lon="4.3124599">
	<ele>9.00</ele>
	<time>1970-01-01T01:21:59.240Z</time>
</trkpt>
<trkpt lat="51.2971802" lon="4.3125491">
	<ele>9.00</ele>
	<time>1970-01-01T01:22:00.538Z</time>
</trkpt>
<trkpt lat="51.2971916" lon="4.3126440">
	<ele>9.00</ele>
	<time>1970-01-01T01:22:01.834Z</time>
</trkpt>
<trkpt lat="51.2971878" lon="4.3127518">
	<ele>9.00</ele>
	<time>1970-01-01T01:22:03.314Z</time>
</trkpt>
<trkpt lat="51.2971687" lon="4.3128319">
	<ele>9.00</ele>
	<time>1970-01-01T01:22:04.423Z</time>
</trkpt>
<trkpt lat="51.2969322" lon="4.3133101">
	<ele>8.75</ele>
	<time>1970-01-01T01:22:11.708Z</time>
</trkpt>
<trkpt lat="51.2965164" lon="4.3143430">
	<ele>8.75</ele>
	<time>1970-01-01T01:22:26.993Z</time>
</trkpt>
<trkpt lat="51.2955856" lon="4.3164058">
	<ele>8.00</ele>
	<time>1970-01-01T01:22:56.102Z</time>
</trkpt>
<trkpt lat="51.2954063" lon="4.3167529">
	<ele>8.00</ele>
	<time>1970-01-01T01:23:01.575Z</time>
</trkpt>
<trkpt lat="51.2952080" lon="4.3172231">
	<ele>8.25</ele>
	<time>1970-01-01T01:23:09.175Z</time>
</trkpt>
<trkpt lat="51.2946625" lon="4.3182030">
	<ele>8.00</ele>
	<time>1970-01-01T01:23:25.336Z</time>
</trkpt>
<trkpt lat="51.2944145" lon="4.3185940">
	<ele>8.00</ele>
	<time>1970-01-01T01:23:32.364Z</time>
</trkpt>
<trkpt lat="51.2936287" lon="4.3197021">
	<ele>8.00</ele>
	<time>1970-01-01T01:23:53.613Z</time>
</trkpt>
<trkpt lat="51.2935638" lon="4.3197842">
	<ele>8.00</ele>
	<time>1970-01-01T01:23:55.253Z</time>
</trkpt>
<trkpt lat="51.2934494" lon="4.3199592">
	<ele>8.00</ele>
	<time>1970-01-01T01:23:58.536Z</time>
</trkpt>
<trkpt lat="51.2933578" lon="4.3200779">
	<ele>8.00</ele>
	<time>1970-01-01T01:24:00.908Z</time>
</trkpt>
<trkpt lat="51.2929688" lon="4.3205080">
	<ele>8.00</ele>
	<time>1970-01-01T01:24:10.584Z</time>
</trkpt>
<trkpt lat="51.2928352" lon="4.3206410">
	<ele>8.00</ele>
	<time>1970-01-01T01:24:13.690Z</time>
</trkpt>
<trkpt lat="51.2927856" lon="4.3206902">
	<ele>8.00</ele>
	<time>1970-01-01T01:24:14.969Z</time>
</trkpt>
<trkpt lat="51.2900810" lon="4.3234129">
	<ele>8.00</ele>
	<time>1970-01-01T01:25:20.077Z</time>
</trkpt>
<trkpt lat="51.2883377" lon="4.3251309">
	<ele>7.75</ele>
	<time>1970-01-01T01:26:00.564Z</time>
</trkpt>
<trkpt lat="51.2880669" lon="4.3253431">
	<ele>8.00</ele>
	<time>1970-01-01T01:26:07.159Z</time>
</trkpt>
<trkpt lat="51.2877235" lon="4.3257828">
	<ele>8.00</ele>
	<time>1970-01-01T01:26:16.477Z</time>
</trkpt>
<trkpt lat="51.2861443" lon="4.3273840">
	<ele>8.25</ele>
	<time>1970-01-01T01:26:56.462Z</time>
</trkpt>
<trkpt lat="51.2831421" lon="4.3304138">
	<ele>8.00</ele>
	<time>1970-01-01T01:28:07.608Z</time>
</trkpt>
<trkpt lat="51.2830429" lon="4.3305101">
	<ele>8.00</ele>
	<time>1970-01-01T01:28:09.983Z</time>
</trkpt>
<trkpt lat="51.2829552" lon="4.3305941">
	<ele>8.25</ele>
	<time>1970-01-01T01:28:12.146Z</time>
</trkpt>
<trkpt lat="51.2822533" lon="4.3313880">
	<ele>8.00</ele>
	<time>1970-01-01T01:28:29.609Z</time>
</trkpt>
<trkpt lat="51.2822151" lon="4.3314419">
	<ele>8.00</ele>
	<time>1970-01-01T01:28:30.703Z</time>
</trkpt>
<trkpt lat="51.2820511" lon="4.3316779">
	<ele>8.00</ele>
	<time>1970-01-01T01:28:35.264Z</time>
</trkpt>
<trkpt lat="51.2818756" lon="4.3319550">
	<ele>8.00</ele>
	<time>1970-01-01T01:28:40.375Z</time>
</trkpt>
<trkpt lat="51.2817383" lon="4.3321910">
	<ele>8.00</ele>
	<time>1970-01-01T01:28:44.576Z</time>
</trkpt>
<trkpt lat="51.2813835" lon="4.3326988">
	<ele>8.00</ele>
	<time>1970-01-01T01:28:54.261Z</time>
</trkpt>
<trkpt lat="51.2811241" lon="4.3330698">
	<ele>8.00</ele>
	<time>1970-01-01T01:29:01.390Z</time>
</trkpt>
<trkpt lat="51.2809181" lon="4.3333831">
	<ele>8.00</ele>
	<time>1970-01-01T01:29:07.242Z</time>
</trkpt>
<trkpt lat="51.2806473" lon="4.3333721">
	<ele>8.00</ele>
	<time>1970-01-01T01:29:12.728Z</time>
</trkpt>
<trkpt lat="51.2806053" lon="4.3334060">
	<ele>8.00</ele>
	<time>1970-01-01T01:29:13.642Z</time>
</trkpt>
<trkpt lat="51.2805595" lon="4.3334689">
	<ele>7.75</ele>
	<time>1970-01-01T01:29:14.833Z</time>
</trkpt>
<trkpt lat="51.2805099" lon="4.3335438">
	<ele>8.00</ele>
	<time>1970-01-01T01:29:16.304Z</time>
</trkpt>
<trkpt lat="51.2804756" lon="4.3335938">
	<ele>8.00</ele>
	<time>1970-01-01T01:29:17.222Z</time>
</trkpt>
<trkpt lat="51.2801285" lon="4.3329630">
	<ele>8.00</ele>
	<time>1970-01-01T01:29:28.051Z</time>
</trkpt>
<trkpt lat="51.2796555" lon="4.3321080">
	<ele>8.25</ele>
	<time>1970-01-01T01:29:43.507Z</time>
</trkpt>
<trkpt lat="51.2792397" lon="4.3313718">
	<ele>8.00</ele>
	<time>1970-01-01T01:29:55.765Z</time>
</trkpt>
<trkpt lat="51.2790833" lon="4.3314180">
	<ele>8.00</ele>
	<time>1970-01-01T01:29:58.997Z</time>
</trkpt>
<trkpt lat="51.2787819" lon="4.3308949">
	<ele>8.00</ele>
	<time>1970-01-01T01:30:08.023Z</time>
</trkpt>
<trkpt lat="51.2786903" lon="4.3307338">
	<ele>8.00</ele>
	<time>1970-01-01T01:30:10.741Z</time>
</trkpt>
<trkpt lat="51.2785301" lon="4.3309622">
	<ele>8.00</ele>
	<time>1970-01-01T01:30:15.097Z</time>
</trkpt>
<trkpt lat="51.2778587" lon="4.3319292">
	<ele>8.00</ele>
	<time>1970-01-01T01:30:33.310Z</time>
</trkpt>
<trkpt lat="51.2777519" lon="4.3317442">
	<ele>8.00</ele>
	<time>1970-01-01T01:30:36.595Z</time>
</trkpt>
<trkpt lat="51.2774544" lon="4.3312302">
	<ele>8.00</ele>
	<time>1970-01-01T01:30:45.545Z</time>
</trkpt>
<trkpt lat="51.2771912" lon="4.3307810">
	<ele>8.00</ele>
	<time>1970-01-01T01:30:53.403Z</time>
</trkpt>
<trkpt lat="51.2770042" lon="4.3304558">
	<ele>8.00</ele>
	<time>1970-01-01T01:30:59.070Z</time>
</trkpt>
<trkpt lat="51.2768745" lon="4.3302360">
	<ele>8.25</ele>
	<time>1970-01-01T01:31:03.186Z</time>
</trkpt>
<trkpt lat="51.2768059" lon="4.3301120">
	<ele>8.75</ele>
	<time>1970-01-01T01:31:05.883Z</time>
</trkpt>
<trkpt lat="51.2768555" lon="4.3300338">
	<ele>8.75</ele>
	<time>1970-01-01T01:31:07.646Z</time>
</trkpt>
<trkpt lat="51.2767487" lon="4.3298478">
	<ele>8.75</ele>
	<time>1970-01-01T01:31:11.813Z</time>
</trkpt>
<trkpt lat="51.2765083" lon="4.3294339">
	<ele>8.75</ele>
	<time>1970-01-01T01:31:20.333Z</time>
</trkpt>
<trkpt lat="51.2764778" lon="4.3294129">
	<ele>8.75</ele>
	<time>1970-01-01T01:31:21.176Z</time>
</trkpt>
<trkpt lat="51.2764397" lon="4.3294072">
	<ele>8.75</ele>
	<time>1970-01-01T01:31:22.015Z</time>
</trkpt>
<trkpt lat="51.2763939" lon="4.3294191">
	<ele>8.75</ele>
	<time>1970-01-01T01:31:23.056Z</time>
</trkpt>
<trkpt lat="51.2762756" lon="4.3294501">
	<ele>8.75</ele>
	<time>1970-01-01T01:31:25.546Z</time>
</trkpt>
<trkpt lat="51.2762337" lon="4.3294468">
	<ele>8.75</ele>
	<time>1970-01-01T01:31:26.500Z</time>
</trkpt>
<trkpt lat="51.2761993" lon="4.3294182">
	<ele>9.00</ele>
	<time>1970-01-01T01:31:27.322Z</time>
</trkpt>
<trkpt lat="51.2757835" lon="4.3287001">
	<ele>8.00</ele>
	<time>1970-01-01T01:31:38.191Z</time>
</trkpt>
<trkpt lat="51.2751312" lon="4.3296142">
	<ele>8.00</ele>
	<time>1970-01-01T01:31:54.877Z</time>
</trkpt>
<trkpt lat="51.2750816" lon="4.3295298">
	<ele>8.00</ele>
	<time>1970-01-01T01:31:56.290Z</time>
</trkpt>
<trkpt lat="51.2765274" lon="4.3274412">
	<ele>8.00</ele>
	<time>1970-01-01T01:32:35.442Z</time>
</trkpt>
<trkpt lat="51.2765617" lon="4.3273988">
	<ele>8.00</ele>
	<time>1970-01-01T01:32:36.354Z</time>
</trkpt>
<trkpt lat="51.2766075" lon="4.3273640">
	<ele>8.00</ele>
	<time>1970-01-01T01:32:37.447Z</time>
</trkpt>
<trkpt lat="51.2766495" lon="4.3273549">
	<ele>8.00</ele>
	<time>1970-01-01T01:32:38.359Z</time>
</trkpt>
<trkpt lat="51.2766953" lon="4.3273640">
	<ele>8.00</ele>
	<time>1970-01-01T01:32:39.271Z</time>
</trkpt>
<trkpt lat="51.2767296" lon="4.3273869">
	<ele>8.00</ele>
	<time>1970-01-01T01:32:40.000Z</time>
</trkpt>
<trkpt lat="51.2768478" lon="4.3275352">
	<ele>8.25</ele>
	<time>1970-01-01T01:32:43.329Z</time>
</trkpt>
<trkpt lat="51.2768707" lon="4.3275509">
	<ele>8.25</ele>
	<time>1970-01-01T01:32:43.913Z</time>
</trkpt>
<trkpt lat="51.2769051" lon="4.3275499">
	<ele>8.50</ele>
	<time>1970-01-01T01:32:44.751Z</time>
</trkpt>
<trkpt lat="51.2769508" lon="4.3274870">
	<ele>8.75</ele>
	<time>1970-01-01T01:32:46.322Z</time>
</trkpt>
<trkpt lat="51.2769966" lon="4.3274140">
	<ele>8.00</ele>
	<time>1970-01-01T01:32:47.560Z</time>
</trkpt>
<trkpt lat="51.2770042" lon="4.3273649">
	<ele>8.00</ele>
	<time>1970-01-01T01:32:48.268Z</time>
</trkpt>
<trkpt lat="51.2769928" lon="4.3273249">
	<ele>8.25</ele>
	<time>1970-01-01T01:32:48.842Z</time>
</trkpt>
<trkpt lat="51.2769432" lon="4.3272371">
	<ele>8.75</ele>
	<time>1970-01-01T01:32:50.615Z</time>
</trkpt>
<trkpt lat="51.2763748" lon="4.3262339">
	<ele>8.00</ele>
	<time>1970-01-01T01:33:07.286Z</time>
</trkpt>
<trkpt lat="51.2758331" lon="4.3252969">
	<ele>8.00</ele>
	<time>1970-01-01T01:33:23.367Z</time>
</trkpt>
<trkpt lat="51.2753181" lon="4.3243680">
	<ele>7.75</ele>
	<time>1970-01-01T01:33:38.427Z</time>
</trkpt>
<trkpt lat="51.2752876" lon="4.3242931">
	<ele>7.75</ele>
	<time>1970-01-01T01:33:39.488Z</time>
</trkpt>
<trkpt lat="51.2751274" lon="4.3237081">
	<ele>7.50</ele>
	<time>1970-01-01T01:33:47.041Z</time>
</trkpt>
<trkpt lat="51.2751122" lon="4.3236241">
	<ele>7.50</ele>
	<time>1970-01-01T01:33:48.068Z</time>
</trkpt>
<trkpt lat="51.2751045" lon="4.3234811">
	<ele>7.50</ele>
	<time>1970-01-01T01:33:49.788Z</time>
</trkpt>
<trkpt lat="51.2750854" lon="4.3232679">
	<ele>7.75</ele>
	<time>1970-01-01T01:33:52.576Z</time>
</trkpt>
<trkpt lat="51.2750206" lon="4.3229318">
	<ele>7.50</ele>
	<time>1970-01-01T01:33:56.735Z</time>
</trkpt>
<trkpt lat="51.2749176" lon="4.3225861">
	<ele>7.00</ele>
	<time>1970-01-01T01:34:00.909Z</time>
</trkpt>
<trkpt lat="51.2748032" lon="4.3222809">
	<ele>7.00</ele>
	<time>1970-01-01T01:34:04.920Z</time>
</trkpt>
<trkpt lat="51.2746735" lon="4.3219609">
	<ele>7.00</ele>
	<time>1970-01-01T01:34:09.380Z</time>
</trkpt>
<trkpt lat="51.2745171" lon="4.3216481">
	<ele>7.00</ele>
	<time>1970-01-01T01:34:14.118Z</time>
</trkpt>
<trkpt lat="51.2742157" lon="4.3210988">
	<ele>6.00</ele>
	<time>1970-01-01T01:34:21.243Z</time>
</trkpt>
<trkpt lat="51.2739105" lon="4.3206820">
	<ele>6.00</ele>
	<time>1970-01-01T01:34:28.171Z</time>
</trkpt>
<trkpt lat="51.2736320" lon="4.3203359">
	<ele>6.00</ele>
	<time>1970-01-01T01:34:34.696Z</time>
</trkpt>
<trkpt lat="51.2732048" lon="4.3197780">
	<ele>6.00</ele>
	<time>1970-01-01T01:34:45.095Z</time>
</trkpt>
<trkpt lat="51.2731552" lon="4.3196821">
	<ele>6.00</ele>
	<time>1970-01-01T01:34:46.663Z</time>
</trkpt>
<trkpt lat="51.2726936" lon="4.3190951">
	<ele>6.00</ele>
	<time>1970-01-01T01:34:58.327Z</time>
</trkpt>
<trkpt lat="51.2725029" lon="4.3188529">
	<ele>6.00</ele>
	<time>1970-01-01T01:35:03.162Z</time>
</trkpt>
<trkpt lat="51.2724495" lon="4.3188090">
	<ele>6.00</ele>
	<time>1970-01-01T01:35:04.419Z</time>
</trkpt>
<trkpt lat="51.2723846" lon="4.3187308">
	<ele>5.75</ele>
	<time>1970-01-01T01:35:05.928Z</time>
</trkpt>
<trkpt lat="51.2716827" lon="4.3178301">
	<ele>5.75</ele>
	<time>1970-01-01T01:35:23.270Z</time>
</trkpt>
<trkpt lat="51.2709122" lon="4.3168120">
	<ele>6.00</ele>
	<time>1970-01-01T01:35:44.135Z</time>
</trkpt>
<trkpt lat="51.2701607" lon="4.3158522">
	<ele>6.50</ele>
	<time>1970-01-01T01:36:05.858Z</time>
</trkpt>
<trkpt lat="51.2695847" lon="4.3151360">
	<ele>6.25</ele>
	<time>1970-01-01T01:36:20.487Z</time>
</trkpt>
<trkpt lat="51.2678146" lon="4.3128591">
	<ele>6.75</ele>
	<time>1970-01-01T01:37:09.281Z</time>
</trkpt>
<trkpt lat="51.2673187" lon="4.3122520">
	<ele>6.50</ele>
	<time>1970-01-01T01:37:21.511Z</time>
</trkpt>
<trkpt lat="51.2669296" lon="4.3117952">
	<ele>7.00</ele>
	<time>1970-01-01T01:37:32.366Z</time>
</trkpt>
<trkpt lat="51.2667160" lon="4.3115611">
	<ele>6.50</ele>
	<time>1970-01-01T01:37:37.311Z</time>
</trkpt>
<trkpt lat="51.2664223" lon="4.3112621">
	<ele>6.50</ele>
	<time>1970-01-01T01:37:44.096Z</time>
</trkpt>
<trkpt lat="51.2661057" lon="4.3109660">
	<ele>6.50</ele>
	<time>1970-01-01T01:37:51.346Z</time>
</trkpt>
<trkpt lat="51.2658119" lon="4.3107090">
	<ele>6.75</ele>
	<time>1970-01-01T01:37:58.397Z</time>
</trkpt>
<trkpt lat="51.2656212" lon="4.3105669">
	<ele>7.00</ele>
	<time>1970-01-01T01:38:03.044Z</time>
</trkpt>
<trkpt lat="51.2652931" lon="4.3103561">
	<ele>7.00</ele>
	<time>1970-01-01T01:38:10.719Z</time>
</trkpt>
<trkpt lat="51.2651711" lon="4.3102918">
	<ele>6.75</ele>
	<time>1970-01-01T01:38:13.240Z</time>
</trkpt>
<trkpt lat="51.2647743" lon="4.3101201">
	<ele>7.25</ele>
	<time>1970-01-01T01:38:22.652Z</time>
</trkpt>
<trkpt lat="51.2643394" lon="4.3099651">
	<ele>7.50</ele>
	<time>1970-01-01T01:38:33.075Z</time>
</trkpt>
<trkpt lat="51.2635803" lon="4.3098159">
	<ele>7.75</ele>
	<time>1970-01-01T01:38:50.605Z</time>
</trkpt>
<trkpt lat="51.2634506" lon="4.3098040">
	<ele>7.50</ele>
	<time>1970-01-01T01:38:53.163Z</time>
</trkpt>
<trkpt lat="51.2631607" lon="4.3098030">
	<ele>7.75</ele>
	<time>1970-01-01T01:38:59.409Z</time>
</trkpt>
<trkpt lat="51.2630196" lon="4.3098040">
	<ele>8.00</ele>
	<time>1970-01-01T01:39:02.719Z</time>
</trkpt>
<trkpt lat="51.2624969" lon="4.3098788">
	<ele>8.00</ele>
	<time>1970-01-01T01:39:14.277Z</time>
</trkpt>
<trkpt lat="51.2621956" lon="4.3099499">
	<ele>7.25</ele>
	<time>1970-01-01T01:39:19.706Z</time>
</trkpt>
<trkpt lat="51.2618980" lon="4.3100700">
	<ele>7.75</ele>
	<time>1970-01-01T01:39:26.109Z</time>
</trkpt>
<trkpt lat="51.2617035" lon="4.3101592">
	<ele>7.75</ele>
	<time>1970-01-01T01:39:30.222Z</time>
</trkpt>
<trkpt lat="51.2615204" lon="4.3102651">
	<ele>6.75</ele>
	<time>1970-01-01T01:39:33.391Z</time>
</trkpt>
<trkpt lat="51.2611504" lon="4.3105111">
	<ele>6.00</ele>
	<time>1970-01-01T01:39:39.307Z</time>
</trkpt>
<trkpt lat="51.2608109" lon="4.3107610">
	<ele>5.25</ele>
	<time>1970-01-01T01:39:44.596Z</time>
</trkpt>
<trkpt lat="51.2606125" lon="4.3109169">
	<ele>5.25</ele>
	<time>1970-01-01T01:39:47.918Z</time>
</trkpt>
<trkpt lat="51.2604218" lon="4.3110781">
	<ele>4.75</ele>
	<time>1970-01-01T01:39:51.059Z</time>
</trkpt>
<trkpt lat="51.2601776" lon="4.3113151">
	<ele>4.75</ele>
	<time>1970-01-01T01:39:55.563Z</time>
</trkpt>
<trkpt lat="51.2600212" lon="4.3114901">
	<ele>5.25</ele>
	<time>1970-01-01T01:39:59.116Z</time>
</trkpt>
<trkpt lat="51.2598572" lon="4.3115468">
	<ele>5.25</ele>
	<time>1970-01-01T01:40:02.376Z</time>
</trkpt>
<trkpt lat="51.2598076" lon="4.3115821">
	<ele>5.75</ele>
	<time>1970-01-01T01:40:03.579Z</time>
</trkpt>
<trkpt lat="51.2597237" lon="4.3116851">
	<ele>6.75</ele>
	<time>1970-01-01T01:40:06.782Z</time>
</trkpt>
<trkpt lat="51.2596397" lon="4.3119602">
	<ele>6.25</ele>
	<time>1970-01-01T01:40:11.383Z</time>
</trkpt>
<trkpt lat="51.2593613" lon="4.3123212">
	<ele>6.75</ele>
	<time>1970-01-01T01:40:20.900Z</time>
</trkpt>
<trkpt lat="51.2591896" lon="4.3125529">
	<ele>6.50</ele>
	<time>1970-01-01T01:40:26.052Z</time>
</trkpt>
<trkpt lat="51.2591095" lon="4.3126812">
	<ele>7.00</ele>
	<time>1970-01-01T01:40:28.861Z</time>
</trkpt>
<trkpt lat="51.2588692" lon="4.3131170">
	<ele>7.00</ele>
	<time>1970-01-01T01:40:37.931Z</time>
</trkpt>
<trkpt lat="51.2587471" lon="4.3133588">
	<ele>7.75</ele>
	<time>1970-01-01T01:40:43.631Z</time>
</trkpt>
<trkpt lat="51.2585182" lon="4.3138609">
	<ele>7.50</ele>
	<time>1970-01-01T01:40:53.138Z</time>
</trkpt>
<trkpt lat="51.2583237" lon="4.3143582">
	<ele>6.75</ele>
	<time>1970-01-01T01:41:00.168Z</time>
</trkpt>
<trkpt lat="51.2581367" lon="4.3148961">
	<ele>6.75</ele>
	<time>1970-01-01T01:41:07.704Z</time>
</trkpt>
<trkpt lat="51.2579346" lon="4.3155880">
	<ele>6.75</ele>
	<time>1970-01-01T01:41:17.144Z</time>
</trkpt>
<trkpt lat="51.2578125" lon="4.3160601">
	<ele>6.75</ele>
	<time>1970-01-01T01:41:23.619Z</time>
</trkpt>
<trkpt lat="51.2576790" lon="4.3166299">
	<ele>7.00</ele>
	<time>1970-01-01T01:41:31.705Z</time>
</trkpt>
<trkpt lat="51.2574158" lon="4.3178949">
	<ele>6.75</ele>
	<time>1970-01-01T01:41:48.332Z</time>
</trkpt>
<trkpt lat="51.2572937" lon="4.3183818">
	<ele>7.75</ele>
	<time>1970-01-01T01:41:57.015Z</time>
</trkpt>
<trkpt lat="51.2572403" lon="4.3187661">
	<ele>6.25</ele>
	<time>1970-01-01T01:42:01.165Z</time>
</trkpt>
<trkpt lat="51.2571678" lon="4.3192062">
	<ele>6.50</ele>
	<time>1970-01-01T01:42:06.472Z</time>
</trkpt>
<trkpt lat="51.2566872" lon="4.3216619">
	<ele>6.00</ele>
	<time>1970-01-01T01:42:36.050Z</time>
</trkpt>
<trkpt lat="51.2565079" lon="4.3224812">
	<ele>7.00</ele>
	<time>1970-01-01T01:42:49.726Z</time>
</trkpt>
<trkpt lat="51.2563133" lon="4.3232918">
	<ele>6.75</ele>
	<time>1970-01-01T01:43:01.473Z</time>
</trkpt>
<trkpt lat="51.2549591" lon="4.3284359">
	<ele>6.25</ele>
	<time>1970-01-01T01:44:10.798Z</time>
</trkpt>
<trkpt lat="51.2549248" lon="4.3285370">
	<ele>6.50</ele>
	<time>1970-01-01T01:44:12.370Z</time>
</trkpt>
<trkpt lat="51.2548943" lon="4.3286018">
	<ele>6.75</ele>
	<time>1970-01-01T01:44:13.637Z</time>
</trkpt>
<trkpt lat="51.2546692" lon="4.3289232">
	<ele>7.75</ele>
	<time>1970-01-01T01:44:22.746Z</time>
</trkpt>
<trkpt lat="51.2546196" lon="4.3290539">
	<ele>7.25</ele>
	<time>1970-01-01T01:44:25.098Z</time>
</trkpt>
<trkpt lat="51.2538834" lon="4.3318419">
	<ele>8.25</ele>
	<time>1970-01-01T01:45:11.837Z</time>
</trkpt>
<trkpt lat="51.2538681" lon="4.3319111">
	<ele>8.00</ele>
	<time>1970-01-01T01:45:12.733Z</time>
</trkpt>
<trkpt lat="51.2538719" lon="4.3319669">
	<ele>8.00</ele>
	<time>1970-01-01T01:45:13.450Z</time>
</trkpt>
<trkpt lat="51.2538948" lon="4.3321748">
	<ele>7.75</ele>
	<time>1970-01-01T01:45:15.965Z</time>
</trkpt>
<trkpt lat="51.2538948" lon="4.3322539">
	<ele>7.75</ele>
	<time>1970-01-01T01:45:16.980Z</time>
</trkpt>
<trkpt lat="51.2538872" lon="4.3323359">
	<ele>7.50</ele>
	<time>1970-01-01T01:45:17.930Z</time>
</trkpt>
<trkpt lat="51.2538223" lon="4.3326521">
	<ele>6.50</ele>
	<time>1970-01-01T01:45:20.877Z</time>
</trkpt>
<trkpt lat="51.2537155" lon="4.3330379">
	<ele>7.25</ele>
	<time>1970-01-01T01:45:25.802Z</time>
</trkpt>
<trkpt lat="51.2535782" lon="4.3334522">
	<ele>6.75</ele>
	<time>1970-01-01T01:45:30.746Z</time>
</trkpt>
<trkpt lat="51.2531166" lon="4.3346629">
	<ele>6.75</ele>
	<time>1970-01-01T01:45:46.971Z</time>
</trkpt>
<trkpt lat="51.2530098" lon="4.3349242">
	<ele>6.75</ele>
	<time>1970-01-01T01:45:50.767Z</time>
</trkpt>
<trkpt lat="51.2528992" lon="4.3351660">
	<ele>7.25</ele>
	<time>1970-01-01T01:45:54.973Z</time>
</trkpt>
<trkpt lat="51.2526512" lon="4.3356638">
	<ele>7.25</ele>
	<time>1970-01-01T01:46:03.570Z</time>
</trkpt>
<trkpt lat="51.2504807" lon="4.3396692">
	<ele>6.75</ele>
	<time>1970-01-01T01:47:09.501Z</time>
</trkpt>
<trkpt lat="51.2502670" lon="4.3400621">
	<ele>6.75</ele>
	<time>1970-01-01T01:47:16.073Z</time>
</trkpt>
<trkpt lat="51.2501869" lon="4.3402739">
	<ele>7.25</ele>
	<time>1970-01-01T01:47:19.655Z</time>
</trkpt>
<trkpt lat="51.2498741" lon="4.3409171">
	<ele>7.25</ele>
	<time>1970-01-01T01:47:31.159Z</time>
</trkpt>
<trkpt lat="51.2497978" lon="4.3410730">
	<ele>7.00</ele>
	<time>1970-01-01T01:47:33.710Z</time>
</trkpt>
<trkpt lat="51.2473869" lon="4.3455338">
	<ele>6.50</ele>
	<time>1970-01-01T01:48:46.168Z</time>
</trkpt>
<trkpt lat="51.2461510" lon="4.3477669">
	<ele>6.75</ele>
	<time>1970-01-01T01:49:25.423Z</time>
</trkpt>
<trkpt lat="51.2456245" lon="4.3487430">
	<ele>6.25</ele>
	<time>1970-01-01T01:49:40.436Z</time>
</trkpt>
<trkpt lat="51.2449913" lon="4.3500762">
	<ele>6.00</ele>
	<time>1970-01-01T01:50:00.240Z</time>
</trkpt>
<trkpt lat="51.2442665" lon="4.3520508">
	<ele>6.50</ele>
	<time>1970-01-01T01:50:31.186Z</time>
</trkpt>
<trkpt lat="51.2437668" lon="4.3534598">
	<ele>6.50</ele>
	<time>1970-01-01T01:50:52.138Z</time>
</trkpt>
<trkpt lat="51.2434425" lon="4.3544030">
	<ele>6.50</ele>
	<time>1970-01-01T01:51:05.929Z</time>
</trkpt>
<trkpt lat="51.2434616" lon="4.3544211">
	<ele>6.50</ele>
	<time>1970-01-01T01:51:06.296Z</time>
</trkpt>
<trkpt lat="51.2435074" lon="4.3544502">
	<ele>6.25</ele>
	<time>1970-01-01T01:51:07.149Z</time>
</trkpt>
<trkpt lat="51.2436218" lon="4.3545470">
	<ele>5.75</ele>
	<time>1970-01-01T01:51:09.255Z</time>
</trkpt>
<trkpt lat="51.2436676" lon="4.3545909">
	<ele>6.00</ele>
	<time>1970-01-01T01:51:10.238Z</time>
</trkpt>
<trkpt lat="51.2436981" lon="4.3545699">
	<ele>6.00</ele>
	<time>1970-01-01T01:51:10.897Z</time>
</trkpt>
<trkpt lat="51.2437172" lon="4.3545079">
	<ele>6.00</ele>
	<time>1970-01-01T01:51:11.724Z</time>
</trkpt>
<trkpt lat="51.2437477" lon="4.3544712">
	<ele>6.00</ele>
	<time>1970-01-01T01:51:12.389Z</time>
</trkpt>
<trkpt lat="51.2437897" lon="4.3544412">
	<ele>6.00</ele>
	<time>1970-01-01T01:51:13.223Z</time>
</trkpt>
<trkpt lat="51.2438774" lon="4.3544412">
	<ele>6.00</ele>
	<time>1970-01-01T01:51:14.903Z</time>
</trkpt>
<trkpt lat="51.2439346" lon="4.3544941">
	<ele>6.00</ele>
	<time>1970-01-01T01:51:16.087Z</time>
</trkpt>
<trkpt lat="51.2439880" lon="4.3546858">
	<ele>6.00</ele>
	<time>1970-01-01T01:51:18.644Z</time>
</trkpt>
<trkpt lat="51.2439957" lon="4.3560042">
	<ele>6.00</ele>
	<time>1970-01-01T01:51:34.766Z</time>
</trkpt>
<trkpt lat="51.2439690" lon="4.3573389">
	<ele>6.00</ele>
	<time>1970-01-01T01:51:51.490Z</time>
</trkpt>
<trkpt lat="51.2439346" lon="4.3603282">
	<ele>5.75</ele>
	<time>1970-01-01T01:52:28.373Z</time>
</trkpt>
<trkpt lat="51.2438889" lon="4.3658552">
	<ele>5.75</ele>
	<time>1970-01-01T01:53:38.799Z</time>
</trkpt>
<trkpt lat="51.2438507" lon="4.3695812">
	<ele>6.00</ele>
	<time>1970-01-01T01:54:27.673Z</time>
</trkpt>
<trkpt lat="51.2438507" lon="4.3702931">
	<ele>6.00</ele>
	<time>1970-01-01T01:54:36.861Z</time>
</trkpt>
<trkpt lat="51.2438469" lon="4.3711181">
	<ele>6.00</ele>
	<time>1970-01-01T01:54:47.500Z</time>
</trkpt>
<trkpt lat="51.2438202" lon="4.3719401">
	<ele>6.00</ele>
	<time>1970-01-01T01:54:57.943Z</time>
</trkpt>
<trkpt lat="51.2438049" lon="4.3736610">
	<ele>6.00</ele>
	<time>1970-01-01T01:55:19.910Z</time>
</trkpt>
<trkpt lat="51.2437897" lon="4.3762870">
	<ele>6.00</ele>
	<time>1970-01-01T01:55:53.394Z</time>
</trkpt>
<trkpt lat="51.2437630" lon="4.3789368">
	<ele>6.00</ele>
	<time>1970-01-01T01:56:27.240Z</time>
</trkpt>
<trkpt lat="51.2437439" lon="4.3811951">
	<ele>6.00</ele>
	<time>1970-01-01T01:56:56.146Z</time>
</trkpt>
<trkpt lat="51.2437096" lon="4.3819871">
	<ele>6.25</ele>
	<time>1970-01-01T01:57:06.820Z</time>
</trkpt>
<trkpt lat="51.2436943" lon="4.3833561">
	<ele>6.00</ele>
	<time>1970-01-01T01:57:24.025Z</time>
</trkpt>
<trkpt lat="51.2437096" lon="4.3837919">
	<ele>6.00</ele>
	<time>1970-01-01T01:57:29.455Z</time>
</trkpt>
<trkpt lat="51.2437439" lon="4.3844018">
	<ele>4.00</ele>
	<time>1970-01-01T01:57:34.576Z</time>
</trkpt>
<trkpt lat="51.2437973" lon="4.3850260">
	<ele>5.50</ele>
	<time>1970-01-01T01:57:42.992Z</time>
</trkpt>
<trkpt lat="51.2438316" lon="4.3854518">
	<ele>6.00</ele>
	<time>1970-01-01T01:57:49.468Z</time>
</trkpt>
<trkpt lat="51.2438087" lon="4.3856549">
	<ele>5.75</ele>
	<time>1970-01-01T01:57:52.186Z</time>
</trkpt>
<trkpt lat="51.2437515" lon="4.3859768">
	<ele>6.75</ele>
	<time>1970-01-01T01:57:58.031Z</time>
</trkpt>
<trkpt lat="51.2438812" lon="4.3860011">
	<ele>6.75</ele>
	<time>1970-01-01T01:58:01.396Z</time>
</trkpt>
<trkpt lat="51.2440681" lon="4.3860478">
	<ele>7.00</ele>
	<time>1970-01-01T01:58:06.581Z</time>
</trkpt>
<trkpt lat="51.2440758" lon="4.3860502">
	<ele>7.00</ele>
	<time>1970-01-01T01:58:06.820Z</time>
</trkpt>
<trkpt lat="51.2453156" lon="4.3863859">
	<ele>11.00</ele>
	<time>1970-01-01T01:58:41.793Z</time>
</trkpt>
<trkpt lat="51.2453041" lon="4.3864970">
	<ele>10.50</ele>
	<time>1970-01-01T01:58:45.108Z</time>
</trkpt>
<trkpt lat="51.2452965" lon="4.3866229">
	<ele>10.25</ele>
	<time>1970-01-01T01:58:48.432Z</time>
</trkpt>
<trkpt lat="51.2461166" lon="4.3868408">
	<ele>10.50</ele>
	<time>1970-01-01T01:59:16.586Z</time>
</trkpt>
<trkpt lat="51.2461739" lon="4.3868728">
	<ele>9.50</ele>
	<time>1970-01-01T01:59:17.681Z</time>
</trkpt>
<trkpt lat="51.2462730" lon="4.3869019">
	<ele>7.75</ele>
	<time>1970-01-01T01:59:19.109Z</time>
</trkpt>
<trkpt lat="51.2478523" lon="4.3873219">
	<ele>7.25</ele>
	<time>1970-01-01T01:59:43.970Z</time>
</trkpt>
<trkpt lat="51.2479591" lon="4.3873501">
	<ele>9.00</ele>
	<time>1970-01-01T01:59:47.280Z</time>
</trkpt>
<trkpt lat="51.2480278" lon="4.3873558">
	<ele>10.00</ele>
	<time>1970-01-01T01:59:49.732Z</time>
</trkpt>
<trkpt lat="51.2481155" lon="4.3874049">
	<ele>10.25</ele>
	<time>1970-01-01T01:59:53.293Z</time>
</trkpt>
<trkpt lat="51.2481918" lon="4.3874660">
	<ele>10.50</ele>
	<time>1970-01-01T01:59:56.529Z</time>
</trkpt>
<trkpt lat="51.2484016" lon="4.3876820">
	<ele>9.75</ele>
	<time>1970-01-01T02:00:04.051Z</time>
</trkpt>
<trkpt lat="51.2484131" lon="4.3876891">
	<ele>9.75</ele>
	<time>1970-01-01T02:00:04.561Z</time>
</trkpt>
<trkpt lat="51.2485733" lon="4.3876491">
	<ele>10.75</ele>
	<time>1970-01-01T02:00:10.387Z</time>
</trkpt>
<trkpt lat="51.2486954" lon="4.3876619">
	<ele>11.00</ele>
	<time>1970-01-01T02:00:14.862Z</time>
</trkpt>
<trkpt lat="51.2487335" lon="4.3875942">
	<ele>11.00</ele>
	<time>1970-01-01T02:00:16.688Z</time>
</trkpt>
<trkpt lat="51.2487488" lon="4.3875551">
	<ele>11.00</ele>
	<time>1970-01-01T02:00:17.581Z</time>
</trkpt>
<trkpt lat="51.2487679" lon="4.3875079">
	<ele>11.00</ele>
	<time>1970-01-01T02:00:18.754Z</time>
</trkpt>
<trkpt lat="51.2487793" lon="4.3874779">
	<ele>10.75</ele>
	<time>1970-01-01T02:00:19.558Z</time>
</trkpt>
<trkpt lat="51.2488518" lon="4.3874850">
	<ele>10.75</ele>
	<time>1970-01-01T02:00:21.661Z</time>
</trkpt>
<trkpt lat="51.2491837" lon="4.3875999">
	<ele>9.75</ele>
	<time>1970-01-01T02:00:28.824Z</time>
</trkpt>
<trkpt lat="51.2495384" lon="4.3878160">
	<ele>8.00</ele>
	<time>1970-01-01T02:00:34.149Z</time>
</trkpt>
<trkpt lat="51.2504044" lon="4.3883839">
	<ele>6.25</ele>
	<time>1970-01-01T02:00:46.230Z</time>
</trkpt>
<trkpt lat="51.2505646" lon="4.3884730">
	<ele>6.25</ele>
	<time>1970-01-01T02:00:48.913Z</time>
</trkpt>
<trkpt lat="51.2506866" lon="4.3885159">
	<ele>6.25</ele>
	<time>1970-01-01T02:00:50.965Z</time>
</trkpt>
<trkpt lat="51.2509842" lon="4.3885779">
	<ele>6.00</ele>
	<time>1970-01-01T02:00:55.732Z</time>
</trkpt>
<trkpt lat="51.2510529" lon="4.3885851">
	<ele>6.00</ele>
	<time>1970-01-01T02:00:56.937Z</time>
</trkpt>
<trkpt lat="51.2512169" lon="4.3885880">
	<ele>6.00</ele>
	<time>1970-01-01T02:00:59.709Z</time>
</trkpt>
<trkpt lat="51.2577972" lon="4.3887558">
	<ele>6.75</ele>
	<time>1970-01-01T02:03:14.804Z</time>
</trkpt>
<trkpt lat="51.2587585" lon="4.3887792">
	<ele>7.00</ele>
	<time>1970-01-01T02:03:35.324Z</time>
</trkpt>
<trkpt lat="51.2588806" lon="4.3887811">
	<ele>7.00</ele>
	<time>1970-01-01T02:03:37.948Z</time>
</trkpt>
<trkpt lat="51.2590370" lon="4.3887858">
	<ele>7.00</ele>
	<time>1970-01-01T02:03:41.124Z</time>
</trkpt>
<trkpt lat="51.2590828" lon="4.3888478">
	<ele>6.75</ele>
	<time>1970-01-01T02:03:42.337Z</time>
</trkpt>
<trkpt lat="51.2591171" lon="4.3888912">
	<ele>7.00</ele>
	<time>1970-01-01T02:03:43.273Z</time>
</trkpt>
<trkpt lat="51.2591362" lon="4.3889151">
	<ele>7.00</ele>
	<time>1970-01-01T02:03:43.834Z</time>
</trkpt>
<trkpt lat="51.2593040" lon="4.3888330">
	<ele>7.00</ele>
	<time>1970-01-01T02:03:47.564Z</time>
</trkpt>
<trkpt lat="51.2593765" lon="4.3888102">
	<ele>7.00</ele>
	<time>1970-01-01T02:03:49.052Z</time>
</trkpt>
<trkpt lat="51.2595062" lon="4.3887858">
	<ele>7.00</ele>
	<time>1970-01-01T02:03:51.837Z</time>
</trkpt>
<trkpt lat="51.2599030" lon="4.3887739">
	<ele>7.00</ele>
	<time>1970-01-01T02:03:59.978Z</time>
</trkpt>
<trkpt lat="51.2605476" lon="4.3887892">
	<ele>7.00</ele>
	<time>1970-01-01T02:04:13.234Z</time>
</trkpt>
<trkpt lat="51.2608948" lon="4.3887968">
	<ele>7.00</ele>
	<time>1970-01-01T02:04:20.211Z</time>
</trkpt>
<trkpt lat="51.2618752" lon="4.3888202">
	<ele>7.00</ele>
	<time>1970-01-01T02:04:40.188Z</time>
</trkpt>
<trkpt lat="51.2618980" lon="4.3888192">
	<ele>7.00</ele>
	<time>1970-01-01T02:04:40.554Z</time>
</trkpt>
<trkpt lat="51.2620354" lon="4.3888621">
	<ele>6.75</ele>
	<time>1970-01-01T02:04:43.288Z</time>
</trkpt>
<trkpt lat="51.2620735" lon="4.3888659">
	<ele>6.75</ele>
	<time>1970-01-01T02:04:43.976Z</time>
</trkpt>
<trkpt lat="51.2636986" lon="4.3889241">
	<ele>6.00</ele>
	<time>1970-01-01T02:05:13.060Z</time>
</trkpt>
<trkpt lat="51.2637253" lon="4.3889399">
	<ele>6.00</ele>
	<time>1970-01-01T02:05:13.584Z</time>
</trkpt>
<trkpt lat="51.2637444" lon="4.3889651">
	<ele>6.00</ele>
	<time>1970-01-01T02:05:14.109Z</time>
</trkpt>
<trkpt lat="51.2637634" lon="4.3889961">
	<ele>6.00</ele>
	<time>1970-01-01T02:05:14.634Z</time>
</trkpt>
<trkpt lat="51.2638092" lon="4.3891129">
	<ele>6.00</ele>
	<time>1970-01-01T02:05:16.390Z</time>
</trkpt>
<trkpt lat="51.2638474" lon="4.3891439">
	<ele>6.00</ele>
	<time>1970-01-01T02:05:17.271Z</time>
</trkpt>
<trkpt lat="51.2638702" lon="4.3891468">
	<ele>5.75</ele>
	<time>1970-01-01T02:05:17.763Z</time>
</trkpt>
<trkpt lat="51.2639542" lon="4.3891368">
	<ele>6.00</ele>
	<time>1970-01-01T02:05:19.357Z</time>
</trkpt>
<trkpt lat="51.2640228" lon="4.3891330">
	<ele>6.00</ele>
	<time>1970-01-01T02:05:20.778Z</time>
</trkpt>
<trkpt lat="51.2640343" lon="4.3891320">
	<ele>6.00</ele>
	<time>1970-01-01T02:05:20.956Z</time>
</trkpt>
<trkpt lat="51.2640419" lon="4.3890820">
	<ele>6.00</ele>
	<time>1970-01-01T02:05:21.668Z</time>
</trkpt>
<trkpt lat="51.2640648" lon="4.3889928">
	<ele>6.00</ele>
	<time>1970-01-01T02:05:22.916Z</time>
</trkpt>
<trkpt lat="51.2641144" lon="4.3889399">
	<ele>6.00</ele>
	<time>1970-01-01T02:05:24.165Z</time>
</trkpt>
<trkpt lat="51.2641449" lon="4.3889351">
	<ele>6.00</ele>
	<time>1970-01-01T02:05:24.701Z</time>
</trkpt>
<trkpt lat="51.2644234" lon="4.3889508">
	<ele>6.00</ele>
	<time>1970-01-01T02:05:30.262Z</time>
</trkpt>
<trkpt lat="51.2644577" lon="4.3889489">
	<ele>6.00</ele>
	<time>1970-01-01T02:05:30.982Z</time>
</trkpt>
<trkpt lat="51.2645607" lon="4.3889599">
	<ele>6.00</ele>
	<time>1970-01-01T02:05:33.144Z</time>
</trkpt>
<trkpt lat="51.2646141" lon="4.3889751">
	<ele>6.00</ele>
	<time>1970-01-01T02:05:34.227Z</time>
</trkpt>
<trkpt lat="51.2646637" lon="4.3890009">
	<ele>6.00</ele>
	<time>1970-01-01T02:05:35.310Z</time>
</trkpt>
<trkpt lat="51.2646866" lon="4.3890290">
	<ele>6.00</ele>
	<time>1970-01-01T02:05:35.852Z</time>
</trkpt>
<trkpt lat="51.2647400" lon="4.3889441">
	<ele>6.00</ele>
	<time>1970-01-01T02:05:37.479Z</time>
</trkpt>
<trkpt lat="51.2647972" lon="4.3888612">
	<ele>6.00</ele>
	<time>1970-01-01T02:05:39.108Z</time>
</trkpt>
<trkpt lat="51.2648048" lon="4.3888078">
	<ele>5.75</ele>
	<time>1970-01-01T02:05:39.782Z</time>
</trkpt>
<trkpt lat="51.2648010" lon="4.3886142">
	<ele>6.00</ele>
	<time>1970-01-01T02:05:42.326Z</time>
</trkpt>
<trkpt lat="51.2647934" lon="4.3885741">
	<ele>5.75</ele>
	<time>1970-01-01T02:05:42.833Z</time>
</trkpt>
<trkpt lat="51.2648201" lon="4.3884759">
	<ele>6.00</ele>
	<time>1970-01-01T02:05:44.292Z</time>
</trkpt>
<trkpt lat="51.2649155" lon="4.3884988">
	<ele>6.00</ele>
	<time>1970-01-01T02:05:46.298Z</time>
</trkpt>
<trkpt lat="51.2649574" lon="4.3885150">
	<ele>6.00</ele>
	<time>1970-01-01T02:05:47.210Z</time>
</trkpt>
<trkpt lat="51.2650757" lon="4.3885312">
	<ele>6.00</ele>
	<time>1970-01-01T02:05:49.582Z</time>
</trkpt>
<trkpt lat="51.2651291" lon="4.3885369">
	<ele>6.00</ele>
	<time>1970-01-01T02:05:50.677Z</time>
</trkpt>
<trkpt lat="51.2651558" lon="4.3877382">
	<ele>6.00</ele>
	<time>1970-01-01T02:06:00.903Z</time>
</trkpt>
<trkpt lat="51.2651787" lon="4.3874469">
	<ele>6.25</ele>
	<time>1970-01-01T02:06:04.822Z</time>
</trkpt>
<trkpt lat="51.2654114" lon="4.3850899">
	<ele>7.50</ele>
	<time>1970-01-01T02:06:42.894Z</time>
</trkpt>
<trkpt lat="51.2655983" lon="4.3836818">
	<ele>9.50</ele>
	<time>1970-01-01T02:07:11.672Z</time>
</trkpt>
<trkpt lat="51.2656746" lon="4.3829150">
	<ele>9.00</ele>
	<time>1970-01-01T02:07:22.354Z</time>
</trkpt>
<trkpt lat="51.2656937" lon="4.3827600">
	<ele>11.25</ele>
	<time>1970-01-01T02:07:26.355Z</time>
</trkpt>
<trkpt lat="51.2658272" lon="4.3814402">
	<ele>11.75</ele>
	<time>1970-01-01T02:07:55.415Z</time>
</trkpt>
<trkpt lat="51.2658806" lon="4.3810940">
	<ele>10.75</ele>
	<time>1970-01-01T02:08:00.063Z</time>
</trkpt>
<trkpt lat="51.2660217" lon="4.3805318">
	<ele>7.50</ele>
	<time>1970-01-01T02:08:07.373Z</time>
</trkpt>
<trkpt lat="51.2660675" lon="4.3803382">
	<ele>10.50</ele>
	<time>1970-01-01T02:08:09.839Z</time>
</trkpt>
<trkpt lat="51.2661591" lon="4.3799992">
	<ele>10.75</ele>
	<time>1970-01-01T02:08:14.771Z</time>
</trkpt>
<trkpt lat="51.2663002" lon="4.3795562">
	<ele>8.25</ele>
	<time>1970-01-01T02:08:18.639Z</time>
</trkpt>
<trkpt lat="51.2664108" lon="4.3792381">
	<ele>9.25</ele>
	<time>1970-01-01T02:08:22.470Z</time>
</trkpt>
<trkpt lat="51.2665443" lon="4.3788981">
	<ele>7.75</ele>
	<time>1970-01-01T02:08:25.719Z</time>
</trkpt>
<trkpt lat="51.2667465" lon="4.3784151">
	<ele>7.25</ele>
	<time>1970-01-01T02:08:30.578Z</time>
</trkpt>
<trkpt lat="51.2667885" lon="4.3783288">
	<ele>7.00</ele>
	<time>1970-01-01T02:08:31.430Z</time>
</trkpt>
<trkpt lat="51.2668114" lon="4.3782978">
	<ele>6.75</ele>
	<time>1970-01-01T02:08:31.782Z</time>
</trkpt>
<trkpt lat="51.2668724" lon="4.3782291">
	<ele>6.50</ele>
	<time>1970-01-01T02:08:32.693Z</time>
</trkpt>
<trkpt lat="51.2669792" lon="4.3780661">
	<ele>6.75</ele>
	<time>1970-01-01T02:08:34.822Z</time>
</trkpt>
<trkpt lat="51.2672462" lon="4.3775339">
	<ele>5.75</ele>
	<time>1970-01-01T02:08:40.208Z</time>
</trkpt>
<trkpt lat="51.2674789" lon="4.3771329">
	<ele>6.00</ele>
	<time>1970-01-01T02:08:45.478Z</time>
</trkpt>
<trkpt lat="51.2676506" lon="4.3768611">
	<ele>6.00</ele>
	<time>1970-01-01T02:08:49.502Z</time>
</trkpt>
<trkpt lat="51.2677574" lon="4.3767362">
	<ele>6.00</ele>
	<time>1970-01-01T02:08:51.822Z</time>
</trkpt>
<trkpt lat="51.2679138" lon="4.3765788">
	<ele>6.00</ele>
	<time>1970-01-01T02:08:55.156Z</time>
</trkpt>
<trkpt lat="51.2680244" lon="4.3764968">
	<ele>6.00</ele>
	<time>1970-01-01T02:08:57.265Z</time>
</trkpt>
<trkpt lat="51.2682076" lon="4.3763852">
	<ele>6.00</ele>
	<time>1970-01-01T02:09:00.902Z</time>
</trkpt>
<trkpt lat="51.2683983" lon="4.3763018">
	<ele>6.00</ele>
	<time>1970-01-01T02:09:04.610Z</time>
</trkpt>
<trkpt lat="51.2685432" lon="4.3762689">
	<ele>6.00</ele>
	<time>1970-01-01T02:09:07.345Z</time>
</trkpt>
<trkpt lat="51.2686996" lon="4.3762531">
	<ele>6.00</ele>
	<time>1970-01-01T02:09:10.281Z</time>
</trkpt>
<trkpt lat="51.2688141" lon="4.3762522">
	<ele>6.00</ele>
	<time>1970-01-01T02:09:12.544Z</time>
</trkpt>
<trkpt lat="51.2689171" lon="4.3762670">
	<ele>6.00</ele>
	<time>1970-01-01T02:09:14.645Z</time>
</trkpt>
<trkpt lat="51.2691345" lon="4.3763318">
	<ele>6.00</ele>
	<time>1970-01-01T02:09:19.054Z</time>
</trkpt>
<trkpt lat="51.2694092" lon="4.3764710">
	<ele>6.00</ele>
	<time>1970-01-01T02:09:24.749Z</time>
</trkpt>
<trkpt lat="51.2696304" lon="4.3766541">
	<ele>6.00</ele>
	<time>1970-01-01T02:09:29.768Z</time>
</trkpt>
<trkpt lat="51.2697678" lon="4.3767929">
	<ele>6.00</ele>
	<time>1970-01-01T02:09:33.008Z</time>
</trkpt>
<trkpt lat="51.2701073" lon="4.3773618">
	<ele>6.00</ele>
	<time>1970-01-01T02:09:42.955Z</time>
</trkpt>
<trkpt lat="51.2711143" lon="4.3791409">
	<ele>6.00</ele>
	<time>1970-01-01T02:10:13.380Z</time>
</trkpt>
<trkpt lat="51.2712097" lon="4.3793068">
	<ele>6.00</ele>
	<time>1970-01-01T02:10:16.303Z</time>
</trkpt>
<trkpt lat="51.2726898" lon="4.3819399">
	<ele>6.00</ele>
	<time>1970-01-01T02:11:01.467Z</time>
</trkpt>
<trkpt lat="51.2734795" lon="4.3833051">
	<ele>6.50</ele>
	<time>1970-01-01T02:11:27.393Z</time>
</trkpt>
<trkpt lat="51.2736969" lon="4.3836222">
	<ele>6.50</ele>
	<time>1970-01-01T02:11:33.649Z</time>
</trkpt>
<trkpt lat="51.2738876" lon="4.3838630">
	<ele>6.75</ele>
	<time>1970-01-01T02:11:39.076Z</time>
</trkpt>
<trkpt lat="51.2741585" lon="4.3841448">
	<ele>6.75</ele>
	<time>1970-01-01T02:11:46.130Z</time>
</trkpt>
<trkpt lat="51.2744255" lon="4.3843989">
	<ele>6.75</ele>
	<time>1970-01-01T02:11:52.848Z</time>
</trkpt>
<trkpt lat="51.2747307" lon="4.3846340">
	<ele>6.25</ele>
	<time>1970-01-01T02:11:59.192Z</time>
</trkpt>
<trkpt lat="51.2750092" lon="4.3848181">
	<ele>6.50</ele>
	<time>1970-01-01T02:12:05.225Z</time>
</trkpt>
<trkpt lat="51.2753258" lon="4.3849931">
	<ele>6.75</ele>
	<time>1970-01-01T02:12:12.440Z</time>
</trkpt>
<trkpt lat="51.2755547" lon="4.3850832">
	<ele>6.50</ele>
	<time>1970-01-01T02:12:17.097Z</time>
</trkpt>
<trkpt lat="51.2758446" lon="4.3851771">
	<ele>6.25</ele>
	<time>1970-01-01T02:12:22.676Z</time>
</trkpt>
<trkpt lat="51.2761116" lon="4.3852420">
	<ele>6.75</ele>
	<time>1970-01-01T02:12:28.583Z</time>
</trkpt>
<trkpt lat="51.2763863" lon="4.3852792">
	<ele>6.75</ele>
	<time>1970-01-01T02:12:34.378Z</time>
</trkpt>
<trkpt lat="51.2766418" lon="4.3852949">
	<ele>6.75</ele>
	<time>1970-01-01T02:12:39.713Z</time>
</trkpt>
<trkpt lat="51.2773094" lon="4.3852959">
	<ele>6.00</ele>
	<time>1970-01-01T02:12:51.574Z</time>
</trkpt>
<trkpt lat="51.2807045" lon="4.3852978">
	<ele>6.00</ele>
	<time>1970-01-01T02:13:58.923Z</time>
</trkpt>
<trkpt lat="51.2809486" lon="4.3853359">
	<ele>6.00</ele>
	<time>1970-01-01T02:14:03.854Z</time>
</trkpt>
<trkpt lat="51.2811394" lon="4.3853488">
	<ele>6.00</ele>
	<time>1970-01-01T02:14:07.690Z</time>
</trkpt>
<trkpt lat="51.2812462" lon="4.3853469">
	<ele>6.00</ele>
	<time>1970-01-01T02:14:09.883Z</time>
</trkpt>
<trkpt lat="51.2813416" lon="4.3853502">
	<ele>6.00</ele>
	<time>1970-01-01T02:14:11.710Z</time>
</trkpt>
<trkpt lat="51.2814484" lon="4.3853488">
	<ele>6.00</ele>
	<time>1970-01-01T02:14:13.903Z</time>
</trkpt>
<trkpt lat="51.2817383" lon="4.3853049">
	<ele>6.00</ele>
	<time>1970-01-01T02:14:19.936Z</time>
</trkpt>
<trkpt lat="51.2830086" lon="4.3853021">
	<ele>6.75</ele>
	<time>1970-01-01T02:14:49.144Z</time>
</trkpt>
<trkpt lat="51.2840195" lon="4.3853049">
	<ele>7.00</ele>
	<time>1970-01-01T02:15:11.536Z</time>
</trkpt>
<trkpt lat="51.2850647" lon="4.3853140">
	<ele>6.50</ele>
	<time>1970-01-01T02:15:31.442Z</time>
</trkpt>
<trkpt lat="51.2853928" lon="4.3852758">
	<ele>6.50</ele>
	<time>1970-01-01T02:15:37.842Z</time>
</trkpt>
<trkpt lat="51.2857132" lon="4.3852119">
	<ele>5.50</ele>
	<time>1970-01-01T02:15:42.941Z</time>
</trkpt>
<trkpt lat="51.2858315" lon="4.3851709">
	<ele>5.75</ele>
	<time>1970-01-01T02:15:45.172Z</time>
</trkpt>
<trkpt lat="51.2859573" lon="4.3851151">
	<ele>5.75</ele>
	<time>1970-01-01T02:15:47.606Z</time>
</trkpt>
<trkpt lat="51.2864799" lon="4.3848200">
	<ele>5.50</ele>
	<time>1970-01-01T02:15:57.328Z</time>
</trkpt>
<trkpt lat="51.2867699" lon="4.3846340">
	<ele>6.25</ele>
	<time>1970-01-01T02:16:04.454Z</time>
</trkpt>
<trkpt lat="51.2870331" lon="4.3844342">
	<ele>6.75</ele>
	<time>1970-01-01T02:16:11.680Z</time>
</trkpt>
<trkpt lat="51.2873383" lon="4.3841610">
	<ele>6.75</ele>
	<time>1970-01-01T02:16:19.948Z</time>
</trkpt>
<trkpt lat="51.2877579" lon="4.3836560">
	<ele>6.75</ele>
	<time>1970-01-01T02:16:31.763Z</time>
</trkpt>
<trkpt lat="51.2879677" lon="4.3833690">
	<ele>6.50</ele>
	<time>1970-01-01T02:16:37.383Z</time>
</trkpt>
<trkpt lat="51.2881317" lon="4.3831239">
	<ele>7.00</ele>
	<time>1970-01-01T02:16:42.593Z</time>
</trkpt>
<trkpt lat="51.2883263" lon="4.3827801">
	<ele>6.75</ele>
	<time>1970-01-01T02:16:48.821Z</time>
</trkpt>
<trkpt lat="51.2885780" lon="4.3822970">
	<ele>6.50</ele>
	<time>1970-01-01T02:16:56.554Z</time>
</trkpt>
<trkpt lat="51.2887535" lon="4.3818860">
	<ele>6.75</ele>
	<time>1970-01-01T02:17:03.200Z</time>
</trkpt>
<trkpt lat="51.2888832" lon="4.3815341">
	<ele>6.75</ele>
	<time>1970-01-01T02:17:08.651Z</time>
</trkpt>
<trkpt lat="51.2890167" lon="4.3811312">
	<ele>5.50</ele>
	<time>1970-01-01T02:17:13.072Z</time>
</trkpt>
<trkpt lat="51.2891388" lon="4.3806772">
	<ele>6.00</ele>
	<time>1970-01-01T02:17:18.762Z</time>
</trkpt>
<trkpt lat="51.2892609" lon="4.3801131">
	<ele>5.25</ele>
	<time>1970-01-01T02:17:24.848Z</time>
</trkpt>
<trkpt lat="51.2893562" lon="4.3795919">
	<ele>5.50</ele>
	<time>1970-01-01T02:17:31.133Z</time>
</trkpt>
<trkpt lat="51.2893715" lon="4.3795018">
	<ele>5.75</ele>
	<time>1970-01-01T02:17:32.403Z</time>
</trkpt>
<trkpt lat="51.2895088" lon="4.3786678">
	<ele>5.75</ele>
	<time>1970-01-01T02:17:43.313Z</time>
</trkpt>
<trkpt lat="51.2899857" lon="4.3759031">
	<ele>5.25</ele>
	<time>1970-01-01T02:18:17.540Z</time>
</trkpt>
<trkpt lat="51.2902298" lon="4.3744750">
	<ele>4.75</ele>
	<time>1970-01-01T02:18:34.495Z</time>
</trkpt>
<trkpt lat="51.2903862" lon="4.3735099">
	<ele>4.75</ele>
	<time>1970-01-01T02:18:46.749Z</time>
</trkpt>
<trkpt lat="51.2916603" lon="4.3661661">
	<ele>5.75</ele>
	<time>1970-01-01T02:20:29.234Z</time>
</trkpt>
<trkpt lat="51.2917252" lon="4.3657269">
	<ele>6.00</ele>
	<time>1970-01-01T02:20:35.494Z</time>
</trkpt>
<trkpt lat="51.2917709" lon="4.3653078">
	<ele>5.75</ele>
	<time>1970-01-01T02:20:40.889Z</time>
</trkpt>
<trkpt lat="51.2918091" lon="4.3647122">
	<ele>4.25</ele>
	<time>1970-01-01T02:20:46.339Z</time>
</trkpt>
<trkpt lat="51.2918091" lon="4.3640089">
	<ele>4.50</ele>
	<time>1970-01-01T02:20:53.855Z</time>
</trkpt>
<trkpt lat="51.2917404" lon="4.3629551">
	<ele>5.75</ele>
	<time>1970-01-01T02:21:09.926Z</time>
</trkpt>
<trkpt lat="51.2916985" lon="4.3626409">
	<ele>6.50</ele>
	<time>1970-01-01T02:21:15.437Z</time>
</trkpt>
<trkpt lat="51.2915993" lon="4.3621540">
	<ele>5.75</ele>
	<time>1970-01-01T02:21:22.283Z</time>
</trkpt>
<trkpt lat="51.2915154" lon="4.3618169">
	<ele>5.75</ele>
	<time>1970-01-01T02:21:26.989Z</time>
</trkpt>
<trkpt lat="51.2909355" lon="4.3598719">
	<ele>5.50</ele>
	<time>1970-01-01T02:21:53.717Z</time>
</trkpt>
<trkpt lat="51.2908783" lon="4.3596711">
	<ele>5.75</ele>
	<time>1970-01-01T02:21:56.632Z</time>
</trkpt>
<trkpt lat="51.2908134" lon="4.3593988">
	<ele>6.75</ele>
	<time>1970-01-01T02:22:01.744Z</time>
</trkpt>
<trkpt lat="51.2906952" lon="4.3588028">
	<ele>6.00</ele>
	<time>1970-01-01T02:22:10.243Z</time>
</trkpt>
<trkpt lat="51.2906418" lon="4.3587031">
	<ele>6.00</ele>
	<time>1970-01-01T02:22:11.959Z</time>
</trkpt>
<trkpt lat="51.2906342" lon="4.3586779">
	<ele>6.00</ele>
	<time>1970-01-01T02:22:12.339Z</time>
</trkpt>
<trkpt lat="51.2906113" lon="4.3583241">
	<ele>6.00</ele>
	<time>1970-01-01T02:22:17.072Z</time>
</trkpt>
<trkpt lat="51.2906075" lon="4.3581362">
	<ele>6.00</ele>
	<time>1970-01-01T02:22:19.518Z</time>
</trkpt>
<trkpt lat="51.2906113" lon="4.3576951">
	<ele>6.00</ele>
	<time>1970-01-01T02:22:25.319Z</time>
</trkpt>
<trkpt lat="51.2906265" lon="4.3575220">
	<ele>6.25</ele>
	<time>1970-01-01T02:22:27.724Z</time>
</trkpt>
<trkpt lat="51.2906761" lon="4.3570962">
	<ele>6.50</ele>
	<time>1970-01-01T02:22:34.047Z</time>
</trkpt>
<trkpt lat="51.2907372" lon="4.3567472">
	<ele>7.00</ele>
	<time>1970-01-01T02:22:39.897Z</time>
</trkpt>
<trkpt lat="51.2908936" lon="4.3561420">
	<ele>6.75</ele>
	<time>1970-01-01T02:22:49.293Z</time>
</trkpt>
<trkpt lat="51.2910995" lon="4.3555932">
	<ele>8.75</ele>
	<time>1970-01-01T02:23:03.702Z</time>
</trkpt>
<trkpt lat="51.2915077" lon="4.3546028">
	<ele>6.75</ele>
	<time>1970-01-01T02:23:17.304Z</time>
</trkpt>
<trkpt lat="51.2916832" lon="4.3541670">
	<ele>10.50</ele>
	<time>1970-01-01T02:23:24.830Z</time>
</trkpt>
<trkpt lat="51.2919464" lon="4.3535328">
	<ele>8.75</ele>
	<time>1970-01-01T02:23:39.123Z</time>
</trkpt>
<trkpt lat="51.2921219" lon="4.3531861">
	<ele>7.75</ele>
	<time>1970-01-01T02:23:44.715Z</time>
</trkpt>
<trkpt lat="51.2923584" lon="4.3527918">
	<ele>7.50</ele>
	<time>1970-01-01T02:23:51.183Z</time>
</trkpt>
<trkpt lat="51.2925644" lon="4.3524981">
	<ele>7.00</ele>
	<time>1970-01-01T02:23:55.947Z</time>
</trkpt>
<trkpt lat="51.2926331" lon="4.3524332">
	<ele>7.00</ele>
	<time>1970-01-01T02:23:57.373Z</time>
</trkpt>
<trkpt lat="51.2927856" lon="4.3523450">
	<ele>7.00</ele>
	<time>1970-01-01T02:24:00.275Z</time>
</trkpt>
<trkpt lat="51.2928696" lon="4.3522739">
	<ele>7.00</ele>
	<time>1970-01-01T02:24:01.913Z</time>
</trkpt>
<trkpt lat="51.2933655" lon="4.3517199">
	<ele>6.75</ele>
	<time>1970-01-01T02:24:12.679Z</time>
</trkpt>
<trkpt lat="51.2936096" lon="4.3514161">
	<ele>7.00</ele>
	<time>1970-01-01T02:24:18.987Z</time>
</trkpt>
<trkpt lat="51.2937546" lon="4.3511958">
	<ele>6.50</ele>
	<time>1970-01-01T02:24:22.476Z</time>
</trkpt>
<trkpt lat="51.2938957" lon="4.3509531">
	<ele>6.75</ele>
	<time>1970-01-01T02:24:26.480Z</time>
</trkpt>
<trkpt lat="51.2940331" lon="4.3506832">
	<ele>6.25</ele>
	<time>1970-01-01T02:24:30.193Z</time>
</trkpt>
<trkpt lat="51.2954597" lon="4.3471861">
	<ele>6.25</ele>
	<time>1970-01-01T02:25:20.845Z</time>
</trkpt>
<trkpt lat="51.2956429" lon="4.3467188">
	<ele>6.00</ele>
	<time>1970-01-01T02:25:27.332Z</time>
</trkpt>
<trkpt lat="51.2958832" lon="4.3460741">
	<ele>6.50</ele>
	<time>1970-01-01T02:25:37.581Z</time>
</trkpt>
<trkpt lat="51.2959785" lon="4.3458042">
	<ele>6.50</ele>
	<time>1970-01-01T02:25:41.816Z</time>
</trkpt>
<trkpt lat="51.2960815" lon="4.3455901">
	<ele>6.75</ele>
	<time>1970-01-01T02:25:45.705Z</time>
</trkpt>
<trkpt lat="51.2961311" lon="4.3454480">
	<ele>6.75</ele>
	<time>1970-01-01T02:25:47.920Z</time>
</trkpt>
<trkpt lat="51.2961998" lon="4.3451471">
	<ele>6.00</ele>
	<time>1970-01-01T02:25:51.487Z</time>
</trkpt>
<trkpt lat="51.2963028" lon="4.3445182">
	<ele>5.00</ele>
	<time>1970-01-01T02:25:57.561Z</time>
</trkpt>
<trkpt lat="51.2963676" lon="4.3439622">
	<ele>6.75</ele>
	<time>1970-01-01T02:26:06.516Z</time>
</trkpt>
<trkpt lat="51.2964020" lon="4.3435340">
	<ele>6.75</ele>
	<time>1970-01-01T02:26:12.957Z</time>
</trkpt>
<trkpt lat="51.2964134" lon="4.3430958">
	<ele>6.75</ele>
	<time>1970-01-01T02:26:19.335Z</time>
</trkpt>
<trkpt lat="51.2964592" lon="4.3424149">
	<ele>6.25</ele>
	<time>1970-01-01T02:26:27.753Z</time>
</trkpt>
<trkpt lat="51.2964973" lon="4.3419738">
	<ele>6.50</ele>
	<time>1970-01-01T02:26:33.638Z</time>
</trkpt>
<trkpt lat="51.2965202" lon="4.3417349">
	<ele>6.50</ele>
	<time>1970-01-01T02:26:36.840Z</time>
</trkpt>
<trkpt lat="51.2965698" lon="4.3413711">
	<ele>7.00</ele>
	<time>1970-01-01T02:26:42.426Z</time>
</trkpt>
<trkpt lat="51.2966232" lon="4.3410339">
	<ele>7.00</ele>
	<time>1970-01-01T02:26:47.400Z</time>
</trkpt>
<trkpt lat="51.2966805" lon="4.3407302">
	<ele>6.75</ele>
	<time>1970-01-01T02:26:51.544Z</time>
</trkpt>
<trkpt lat="51.2966995" lon="4.3405800">
	<ele>6.75</ele>
	<time>1970-01-01T02:26:53.607Z</time>
</trkpt>
<trkpt lat="51.2967033" lon="4.3404732">
	<ele>6.75</ele>
	<time>1970-01-01T02:26:54.917Z</time>
</trkpt>
<trkpt lat="51.2967262" lon="4.3403640">
	<ele>6.75</ele>
	<time>1970-01-01T02:26:56.411Z</time>
</trkpt>
<trkpt lat="51.2968788" lon="4.3399520">
	<ele>7.00</ele>
	<time>1970-01-01T02:27:02.970Z</time>
</trkpt>
<trkpt lat="51.2969856" lon="4.3397088">
	<ele>7.75</ele>
	<time>1970-01-01T02:27:08.029Z</time>
</trkpt>
<trkpt lat="51.2971268" lon="4.3394518">
	<ele>8.25</ele>
	<time>1970-01-01T02:27:14.310Z</time>
</trkpt>
<trkpt lat="51.2972984" lon="4.3391881">
	<ele>8.25</ele>
	<time>1970-01-01T02:27:20.600Z</time>
</trkpt>
<trkpt lat="51.2974243" lon="4.3390069">
	<ele>8.50</ele>
	<time>1970-01-01T02:27:25.264Z</time>
</trkpt>
<trkpt lat="51.2984047" lon="4.3378420">
	<ele>9.75</ele>
	<time>1970-01-01T02:28:00.872Z</time>
</trkpt>
<trkpt lat="51.2986412" lon="4.3375511">
	<ele>10.50</ele>
	<time>1970-01-01T02:28:09.377Z</time>
</trkpt>
<trkpt lat="51.3000984" lon="4.3358302">
	<ele>7.50</ele>
	<time>1970-01-01T02:28:38.105Z</time>
</trkpt>
<trkpt lat="51.3004074" lon="4.3354392">
	<ele>7.00</ele>
	<time>1970-01-01T02:28:44.817Z</time>
</trkpt>
<trkpt lat="51.3005486" lon="4.3353610">
	<ele>7.00</ele>
	<time>1970-01-01T02:28:47.372Z</time>
</trkpt>
<trkpt lat="51.3008614" lon="4.3349881">
	<ele>7.00</ele>
	<time>1970-01-01T02:28:54.639Z</time>
</trkpt>
<trkpt lat="51.3009567" lon="4.3348799">
	<ele>7.00</ele>
	<time>1970-01-01T02:28:56.842Z</time>
</trkpt>
<trkpt lat="51.3011780" lon="4.3346310">
	<ele>7.00</ele>
	<time>1970-01-01T02:29:01.998Z</time>
</trkpt>
<trkpt lat="51.3016243" lon="4.3341999">
	<ele>7.00</ele>
	<time>1970-01-01T02:29:12.185Z</time>
</trkpt>
<trkpt lat="51.3053169" lon="4.3310800">
	<ele>7.00</ele>
	<time>1970-01-01T02:30:36.707Z</time>
</trkpt>
<trkpt lat="51.3067627" lon="4.3298650">
	<ele>7.00</ele>
	<time>1970-01-01T02:31:09.999Z</time>
</trkpt>
<trkpt lat="51.3070107" lon="4.3296261">
	<ele>7.00</ele>
	<time>1970-01-01T02:31:15.853Z</time>
</trkpt>
<trkpt lat="51.3071098" lon="4.3295131">
	<ele>7.00</ele>
	<time>1970-01-01T02:31:18.231Z</time>
</trkpt>
<trkpt lat="51.3071671" lon="4.3294291">
	<ele>7.00</ele>
	<time>1970-01-01T02:31:19.878Z</time>
</trkpt>
<trkpt lat="51.3072090" lon="4.3293152">
	<ele>7.00</ele>
	<time>1970-01-01T02:31:21.524Z</time>
</trkpt>
<trkpt lat="51.3073273" lon="4.3291488">
	<ele>7.00</ele>
	<time>1970-01-01T02:31:24.634Z</time>
</trkpt>
<trkpt lat="51.3074226" lon="4.3289728">
	<ele>7.00</ele>
	<time>1970-01-01T02:31:27.561Z</time>
</trkpt>
<trkpt lat="51.3078537" lon="4.3281341">
	<ele>7.00</ele>
	<time>1970-01-01T02:31:41.465Z</time>
</trkpt>
<trkpt lat="51.3079643" lon="4.3279128">
	<ele>7.00</ele>
	<time>1970-01-01T02:31:45.124Z</time>
</trkpt>
<trkpt lat="51.3081512" lon="4.3275681">
	<ele>7.00</ele>
	<time>1970-01-01T02:31:50.978Z</time>
</trkpt>
<trkpt lat="51.3083725" lon="4.3271751">
	<ele>7.00</ele>
	<time>1970-01-01T02:31:57.747Z</time>
</trkpt>
<trkpt lat="51.3084641" lon="4.3270359">
	<ele>7.00</ele>
	<time>1970-01-01T02:32:00.308Z</time>
</trkpt>
<trkpt lat="51.3084641" lon="4.3270359">
	<ele>7.00</ele>
	<time>1970-01-01T02:33:01.869Z</time>
</trkpt>
<trkpt lat="51.3086052" lon="4.3268609">
	<ele>6.75</ele>
	<time>1970-01-01T02:33:05.318Z</time>
</trkpt>
<trkpt lat="51.3086700" lon="4.3268061">
	<ele>7.00</ele>
	<time>1970-01-01T02:33:06.813Z</time>
</trkpt>
<trkpt lat="51.3088913" lon="4.3266010">
	<ele>7.00</ele>
	<time>1970-01-01T02:33:12.213Z</time>
</trkpt>
<trkpt lat="51.3091698" lon="4.3263731">
	<ele>7.75</ele>
	<time>1970-01-01T02:33:20.117Z</time>
</trkpt>
<trkpt lat="51.3092155" lon="4.3263650">
	<ele>7.50</ele>
	<time>1970-01-01T02:33:21.122Z</time>
</trkpt>
<trkpt lat="51.3092537" lon="4.3263898">
	<ele>7.50</ele>
	<time>1970-01-01T02:33:22.123Z</time>
</trkpt>
<trkpt lat="51.3095055" lon="4.3266802">
	<ele>7.00</ele>
	<time>1970-01-01T02:33:28.185Z</time>
</trkpt>
<trkpt lat="51.3095245" lon="4.3266840">
	<ele>7.00</ele>
	<time>1970-01-01T02:33:28.534Z</time>
</trkpt>
<trkpt lat="51.3095436" lon="4.3266740">
	<ele>7.00</ele>
	<time>1970-01-01T02:33:28.884Z</time>
</trkpt>
<trkpt lat="51.3095818" lon="4.3266358">
	<ele>7.00</ele>
	<time>1970-01-01T02:33:29.760Z</time>
</trkpt>
<trkpt lat="51.3099976" lon="4.3262792">
	<ele>7.00</ele>
	<time>1970-01-01T02:33:38.967Z</time>
</trkpt>
<trkpt lat="51.3107834" lon="4.3256111">
	<ele>7.00</ele>
	<time>1970-01-01T02:33:56.792Z</time>
</trkpt>
<trkpt lat="51.3108292" lon="4.3255711">
	<ele>7.00</ele>
	<time>1970-01-01T02:33:57.880Z</time>
</trkpt>
<trkpt lat="51.3112335" lon="4.3252239">
	<ele>7.00</ele>
	<time>1970-01-01T02:34:07.146Z</time>
</trkpt>
<trkpt lat="51.3112869" lon="4.3251772">
	<ele>7.00</ele>
	<time>1970-01-01T02:34:08.420Z</time>
</trkpt>
<trkpt lat="51.3114510" lon="4.3244519">
	<ele>7.00</ele>
	<time>1970-01-01T02:34:18.261Z</time>
</trkpt>
<trkpt lat="51.3114891" lon="4.3244190">
	<ele>7.00</ele>
	<time>1970-01-01T02:34:19.174Z</time>
</trkpt>
<trkpt lat="51.3118057" lon="4.3241391">
	<ele>7.00</ele>
	<time>1970-01-01T02:34:26.475Z</time>
</trkpt>
<trkpt lat="51.3119926" lon="4.3239489">
	<ele>7.00</ele>
	<time>1970-01-01T02:34:31.041Z</time>
</trkpt>
<trkpt lat="51.3120842" lon="4.3238721">
	<ele>7.00</ele>
	<time>1970-01-01T02:34:33.234Z</time>
</trkpt>
<trkpt lat="51.3121796" lon="4.3238239">
	<ele>7.00</ele>
	<time>1970-01-01T02:34:35.244Z</time>
</trkpt>
<trkpt lat="51.3123016" lon="4.3237848">
	<ele>7.00</ele>
	<time>1970-01-01T02:34:37.802Z</time>
</trkpt>
<trkpt lat="51.3124466" lon="4.3237591">
	<ele>7.00</ele>
	<time>1970-01-01T02:34:40.727Z</time>
</trkpt>
<trkpt lat="51.3125458" lon="4.3237581">
	<ele>6.75</ele>
	<time>1970-01-01T02:34:42.600Z</time>
</trkpt>
<trkpt lat="51.3127289" lon="4.3237720">
	<ele>7.00</ele>
	<time>1970-01-01T02:34:46.283Z</time>
</trkpt>
<trkpt lat="51.3128967" lon="4.3238301">
	<ele>7.00</ele>
	<time>1970-01-01T02:34:49.777Z</time>
</trkpt>
<trkpt lat="51.3130493" lon="4.3239179">
	<ele>7.00</ele>
	<time>1970-01-01T02:34:53.085Z</time>
</trkpt>
<trkpt lat="51.3132324" lon="4.3240871">
	<ele>7.00</ele>
	<time>1970-01-01T02:34:57.492Z</time>
</trkpt>
<trkpt lat="51.3134079" lon="4.3243060">
	<ele>7.00</ele>
	<time>1970-01-01T02:35:02.078Z</time>
</trkpt>
<trkpt lat="51.3135757" lon="4.3245859">
	<ele>7.00</ele>
	<time>1970-01-01T02:35:07.028Z</time>
</trkpt>
<trkpt lat="51.3137970" lon="4.3250489">
	<ele>7.00</ele>
	<time>1970-01-01T02:35:14.541Z</time>
</trkpt>
<trkpt lat="51.3143845" lon="4.3263330">
	<ele>7.00</ele>
	<time>1970-01-01T02:35:34.863Z</time>
</trkpt>
<trkpt lat="51.3143539" lon="4.3266449">
	<ele>7.00</ele>
	<time>1970-01-01T02:35:38.890Z</time>
</trkpt>
<trkpt lat="51.3144073" lon="4.3267689">
	<ele>7.00</ele>
	<time>1970-01-01T02:35:40.720Z</time>
</trkpt>
<trkpt lat="51.3144417" lon="4.3268380">
	<ele>7.00</ele>
	<time>1970-01-01T02:35:41.818Z</time>
</trkpt>
<trkpt lat="51.3146515" lon="4.3269119">
	<ele>7.00</ele>
	<time>1970-01-01T02:35:46.210Z</time>
</trkpt>
<trkpt lat="51.3149757" lon="4.3276472">
	<ele>7.00</ele>
	<time>1970-01-01T02:35:57.737Z</time>
</trkpt>
<trkpt lat="51.3149643" lon="4.3279719">
	<ele>7.00</ele>
	<time>1970-01-01T02:36:01.945Z</time>
</trkpt>
<trkpt lat="51.3150635" lon="4.3281832">
	<ele>7.00</ele>
	<time>1970-01-01T02:36:05.239Z</time>
</trkpt>
<trkpt lat="51.3152733" lon="4.3282728">
	<ele>7.00</ele>
	<time>1970-01-01T02:36:09.630Z</time>
</trkpt>
<trkpt lat="51.3156013" lon="4.3289862">
	<ele>7.00</ele>
	<time>1970-01-01T02:36:20.973Z</time>
</trkpt>
<trkpt lat="51.3155937" lon="4.3293638">
	<ele>7.00</ele>
	<time>1970-01-01T02:36:25.730Z</time>
</trkpt>
<trkpt lat="51.3156242" lon="4.3294320">
	<ele>7.00</ele>
	<time>1970-01-01T02:36:26.827Z</time>
</trkpt>
<trkpt lat="51.3156700" lon="4.3295269">
	<ele>7.00</ele>
	<time>1970-01-01T02:36:28.291Z</time>
</trkpt>
<trkpt lat="51.3158989" lon="4.3296261">
	<ele>7.00</ele>
	<time>1970-01-01T02:36:33.048Z</time>
</trkpt>
<trkpt lat="51.3161888" lon="4.3302798">
	<ele>6.25</ele>
	<time>1970-01-01T02:36:41.714Z</time>
</trkpt>
<trkpt lat="51.3163643" lon="4.3307462">
	<ele>6.00</ele>
	<time>1970-01-01T02:36:47.611Z</time>
</trkpt>
<trkpt lat="51.3165550" lon="4.3313560">
	<ele>6.75</ele>
	<time>1970-01-01T02:36:57.028Z</time>
</trkpt>
<trkpt lat="51.3164978" lon="4.3316798">
	<ele>7.00</ele>
	<time>1970-01-01T02:37:01.764Z</time>
</trkpt>
<trkpt lat="51.3165245" lon="4.3317900">
	<ele>7.00</ele>
	<time>1970-01-01T02:37:03.383Z</time>
</trkpt>
<trkpt lat="51.3165550" lon="4.3319082">
	<ele>7.00</ele>
	<time>1970-01-01T02:37:05.189Z</time>
</trkpt>
<trkpt lat="51.3167381" lon="4.3320851">
	<ele>6.50</ele>
	<time>1970-01-01T02:37:09.336Z</time>
</trkpt>
<trkpt lat="51.3168716" lon="4.3328409">
	<ele>7.00</ele>
	<time>1970-01-01T02:37:20.221Z</time>
</trkpt>
<trkpt lat="51.3169632" lon="4.3337269">
	<ele>7.00</ele>
	<time>1970-01-01T02:37:32.260Z</time>
</trkpt>
<trkpt lat="51.3169899" lon="4.3343091">
	<ele>6.50</ele>
	<time>1970-01-01T02:37:39.066Z</time>
</trkpt>
<trkpt lat="51.3169975" lon="4.3349762">
	<ele>6.25</ele>
	<time>1970-01-01T02:37:46.517Z</time>
</trkpt>
<trkpt lat="51.3169632" lon="4.3356972">
	<ele>6.50</ele>
	<time>1970-01-01T02:37:55.503Z</time>
</trkpt>
<trkpt lat="51.3168678" lon="4.3364730">
	<ele>6.25</ele>
	<time>1970-01-01T02:38:04.903Z</time>
</trkpt>
<trkpt lat="51.3168411" lon="4.3366108">
	<ele>6.50</ele>
	<time>1970-01-01T02:38:06.775Z</time>
</trkpt>
<trkpt lat="51.3166656" lon="4.3368158">
	<ele>6.50</ele>
	<time>1970-01-01T02:38:11.253Z</time>
</trkpt>
<trkpt lat="51.3166466" lon="4.3369112">
	<ele>6.75</ele>
	<time>1970-01-01T02:38:12.656Z</time>
</trkpt>
<trkpt lat="51.3166237" lon="4.3370218">
	<ele>6.75</ele>
	<time>1970-01-01T02:38:14.249Z</time>
</trkpt>
<trkpt lat="51.3167038" lon="4.3373771">
	<ele>6.00</ele>
	<time>1970-01-01T02:38:18.441Z</time>
</trkpt>
<trkpt lat="51.3164787" lon="4.3382940">
	<ele>5.00</ele>
	<time>1970-01-01T02:38:28.002Z</time>
</trkpt>
<trkpt lat="51.3164215" lon="4.3385568">
	<ele>6.50</ele>
	<time>1970-01-01T02:38:32.378Z</time>
</trkpt>
<trkpt lat="51.3163490" lon="4.3390388">
	<ele>6.00</ele>
	<time>1970-01-01T02:38:39.069Z</time>
</trkpt>
<trkpt lat="51.3163147" lon="4.3392701">
	<ele>6.25</ele>
	<time>1970-01-01T02:38:42.525Z</time>
</trkpt>
<trkpt lat="51.3162994" lon="4.3395000">
	<ele>7.00</ele>
	<time>1970-01-01T02:38:46.501Z</time>
</trkpt>
<trkpt lat="51.3162842" lon="4.3397799">
	<ele>7.00</ele>
	<time>1970-01-01T02:38:51.229Z</time>
</trkpt>
<trkpt lat="51.3162766" lon="4.3402700">
	<ele>7.00</ele>
	<time>1970-01-01T02:38:58.794Z</time>
</trkpt>
<trkpt lat="51.3163071" lon="4.3408918">
	<ele>7.00</ele>
	<time>1970-01-01T02:39:07.779Z</time>
</trkpt>
<trkpt lat="51.3163567" lon="4.3413649">
	<ele>7.00</ele>
	<time>1970-01-01T02:39:14.387Z</time>
</trkpt>
<trkpt lat="51.3164825" lon="4.3420501">
	<ele>7.00</ele>
	<time>1970-01-01T02:39:24.097Z</time>
</trkpt>
<trkpt lat="51.3169441" lon="4.3438640">
	<ele>7.00</ele>
	<time>1970-01-01T02:39:49.792Z</time>
</trkpt>
<trkpt lat="51.3172226" lon="4.3449712">
	<ele>7.00</ele>
	<time>1970-01-01T02:40:05.097Z</time>
</trkpt>
<trkpt lat="51.3172226" lon="4.3452058">
	<ele>7.00</ele>
	<time>1970-01-01T02:40:08.038Z</time>
</trkpt>
<trkpt lat="51.3174286" lon="4.3457928">
	<ele>7.00</ele>
	<time>1970-01-01T02:40:16.666Z</time>
</trkpt>
<trkpt lat="51.3176727" lon="4.3467360">
	<ele>7.25</ele>
	<time>1970-01-01T02:40:30.416Z</time>
</trkpt>
<trkpt lat="51.3177605" lon="4.3470020">
	<ele>7.25</ele>
	<time>1970-01-01T02:40:34.395Z</time>
</trkpt>
<trkpt lat="51.3178520" lon="4.3472061">
	<ele>7.50</ele>
	<time>1970-01-01T02:40:37.834Z</time>
</trkpt>
<trkpt lat="51.3179703" lon="4.3474212">
	<ele>7.25</ele>
	<time>1970-01-01T02:40:41.542Z</time>
</trkpt>
<trkpt lat="51.3181000" lon="4.3476052">
	<ele>7.25</ele>
	<time>1970-01-01T02:40:45.056Z</time>
</trkpt>
<trkpt lat="51.3182144" lon="4.3477230">
	<ele>7.25</ele>
	<time>1970-01-01T02:40:47.825Z</time>
</trkpt>
<trkpt lat="51.3183708" lon="4.3478589">
	<ele>7.25</ele>
	<time>1970-01-01T02:40:51.512Z</time>
</trkpt>
<trkpt lat="51.3184814" lon="4.3479300">
	<ele>7.50</ele>
	<time>1970-01-01T02:40:54.086Z</time>
</trkpt>
<trkpt lat="51.3186188" lon="4.3479981">
	<ele>7.75</ele>
	<time>1970-01-01T02:40:57.454Z</time>
</trkpt>
<trkpt lat="51.3188362" lon="4.3480430">
	<ele>7.00</ele>
	<time>1970-01-01T02:41:01.474Z</time>
</trkpt>
<trkpt lat="51.3189583" lon="4.3480482">
	<ele>7.00</ele>
	<time>1970-01-01T02:41:03.855Z</time>
</trkpt>
<trkpt lat="51.3190308" lon="4.3480420">
	<ele>7.00</ele>
	<time>1970-01-01T02:41:05.225Z</time>
</trkpt>
<trkpt lat="51.3191833" lon="4.3480330">
	<ele>7.00</ele>
	<time>1970-01-01T02:41:08.160Z</time>
</trkpt>
<trkpt lat="51.3192215" lon="4.3480248">
	<ele>7.00</ele>
	<time>1970-01-01T02:41:08.855Z</time>
</trkpt>
<trkpt lat="51.3193779" lon="4.3479819">
	<ele>7.00</ele>
	<time>1970-01-01T02:41:11.997Z</time>
</trkpt>
<trkpt lat="51.3201065" lon="4.3477678">
	<ele>7.00</ele>
	<time>1970-01-01T02:41:26.564Z</time>
</trkpt>
<trkpt lat="51.3205757" lon="4.3476210">
	<ele>7.00</ele>
	<time>1970-01-01T02:41:36.118Z</time>
</trkpt>
<trkpt lat="51.3214340" lon="4.3473868">
	<ele>7.00</ele>
	<time>1970-01-01T02:41:53.737Z</time>
</trkpt>
<trkpt lat="51.3229637" lon="4.3469138">
	<ele>7.00</ele>
	<time>1970-01-01T02:42:25.323Z</time>
</trkpt>
<trkpt lat="51.3237228" lon="4.3466930">
	<ele>7.00</ele>
	<time>1970-01-01T02:42:41.048Z</time>
</trkpt>
<trkpt lat="51.3240242" lon="4.3466058">
	<ele>7.00</ele>
	<time>1970-01-01T02:42:47.267Z</time>
</trkpt>
<trkpt lat="51.3243332" lon="4.3465152">
	<ele>7.00</ele>
	<time>1970-01-01T02:42:53.669Z</time>
</trkpt>
<trkpt lat="51.3248100" lon="4.3463869">
	<ele>7.25</ele>
	<time>1970-01-01T02:43:04.151Z</time>
</trkpt>
<trkpt lat="51.3248482" lon="4.3463860">
	<ele>7.25</ele>
	<time>1970-01-01T02:43:04.915Z</time>
</trkpt>
<trkpt lat="51.3248901" lon="4.3463979">
	<ele>7.50</ele>
	<time>1970-01-01T02:43:05.944Z</time>
</trkpt>
<trkpt lat="51.3249702" lon="4.3464541">
	<ele>7.50</ele>
	<time>1970-01-01T02:43:07.985Z</time>
</trkpt>
<trkpt lat="51.3250084" lon="4.3464899">
	<ele>7.50</ele>
	<time>1970-01-01T02:43:08.997Z</time>
</trkpt>
<trkpt lat="51.3250694" lon="4.3465719">
	<ele>7.50</ele>
	<time>1970-01-01T02:43:10.806Z</time>
</trkpt>
<trkpt lat="51.3250923" lon="4.3466311">
	<ele>7.25</ele>
	<time>1970-01-01T02:43:11.732Z</time>
</trkpt>
<trkpt lat="51.3251152" lon="4.3467588">
	<ele>7.50</ele>
	<time>1970-01-01T02:43:13.526Z</time>
</trkpt>
<trkpt lat="51.3252449" lon="4.3479428">
	<ele>11.00</ele>
	<time>1970-01-01T02:43:31.575Z</time>
</trkpt>
<trkpt lat="51.3252792" lon="4.3481579">
	<ele>11.75</ele>
	<time>1970-01-01T02:43:35.328Z</time>
</trkpt>
<trkpt lat="51.3252907" lon="4.3483548">
	<ele>11.75</ele>
	<time>1970-01-01T02:43:38.687Z</time>
</trkpt>
<trkpt lat="51.3252983" lon="4.3486218">
	<ele>11.50</ele>
	<time>1970-01-01T02:43:42.758Z</time>
</trkpt>
<trkpt lat="51.3253136" lon="4.3487930">
	<ele>8.75</ele>
	<time>1970-01-01T02:43:45.464Z</time>
</trkpt>
<trkpt lat="51.3253288" lon="4.3490162">
	<ele>9.00</ele>
	<time>1970-01-01T02:43:49.238Z</time>
</trkpt>
<trkpt lat="51.3253479" lon="4.3492141">
	<ele>11.75</ele>
	<time>1970-01-01T02:43:52.200Z</time>
</trkpt>
<trkpt lat="51.3253403" lon="4.3493052">
	<ele>12.25</ele>
	<time>1970-01-01T02:43:53.657Z</time>
</trkpt>
<trkpt lat="51.3253212" lon="4.3493872">
	<ele>12.75</ele>
	<time>1970-01-01T02:43:55.321Z</time>
</trkpt>
<trkpt lat="51.3253403" lon="4.3494220">
	<ele>13.00</ele>
	<time>1970-01-01T02:43:56.201Z</time>
</trkpt>
<trkpt lat="51.3254128" lon="4.3494802">
	<ele>13.00</ele>
	<time>1970-01-01T02:43:58.771Z</time>
</trkpt>
<trkpt lat="51.3254318" lon="4.3495350">
	<ele>12.50</ele>
	<time>1970-01-01T02:43:59.728Z</time>
</trkpt>
<trkpt lat="51.3254356" lon="4.3495760">
	<ele>12.25</ele>
	<time>1970-01-01T02:44:00.386Z</time>
</trkpt>
<trkpt lat="51.3254433" lon="4.3496389">
	<ele>11.50</ele>
	<time>1970-01-01T02:44:02.014Z</time>
</trkpt>
<trkpt lat="51.3255615" lon="4.3506818">
	<ele>10.25</ele>
	<time>1970-01-01T02:44:20.706Z</time>
</trkpt>
<trkpt lat="51.3255692" lon="4.3507280">
	<ele>10.75</ele>
	<time>1970-01-01T02:44:21.498Z</time>
</trkpt>
<trkpt lat="51.3255882" lon="4.3507891">
	<ele>11.25</ele>
	<time>1970-01-01T02:44:23.005Z</time>
</trkpt>
<trkpt lat="51.3255730" lon="4.3508649">
	<ele>11.50</ele>
	<time>1970-01-01T02:44:24.895Z</time>
</trkpt>
<trkpt lat="51.3255615" lon="4.3509040">
	<ele>11.00</ele>
	<time>1970-01-01T02:44:25.694Z</time>
</trkpt>
<trkpt lat="51.3255653" lon="4.3509259">
	<ele>10.75</ele>
	<time>1970-01-01T02:44:26.183Z</time>
</trkpt>
<trkpt lat="51.3255959" lon="4.3510160">
	<ele>10.00</ele>
	<time>1970-01-01T02:44:27.529Z</time>
</trkpt>
<trkpt lat="51.3256416" lon="4.3512421">
	<ele>8.25</ele>
	<time>1970-01-01T02:44:29.637Z</time>
</trkpt>
<trkpt lat="51.3257027" lon="4.3515029">
	<ele>8.00</ele>
	<time>1970-01-01T02:44:32.000Z</time>
</trkpt>
<trkpt lat="51.3257713" lon="4.3517261">
	<ele>8.25</ele>
	<time>1970-01-01T02:44:34.362Z</time>
</trkpt>
<trkpt lat="51.3258591" lon="4.3519568">
	<ele>8.50</ele>
	<time>1970-01-01T02:44:37.288Z</time>
</trkpt>
<trkpt lat="51.3259430" lon="4.3521490">
	<ele>6.75</ele>
	<time>1970-01-01T02:44:39.026Z</time>
</trkpt>
<trkpt lat="51.3261070" lon="4.3524389">
	<ele>7.25</ele>
	<time>1970-01-01T02:44:42.524Z</time>
</trkpt>
<trkpt lat="51.3263817" lon="4.3528280">
	<ele>6.25</ele>
	<time>1970-01-01T02:44:47.328Z</time>
</trkpt>
<trkpt lat="51.3267288" lon="4.3532872">
	<ele>4.25</ele>
	<time>1970-01-01T02:44:55.660Z</time>
</trkpt>
<trkpt lat="51.3268509" lon="4.3534770">
	<ele>4.50</ele>
	<time>1970-01-01T02:44:57.518Z</time>
</trkpt>
<trkpt lat="51.3270035" lon="4.3537502">
	<ele>4.25</ele>
	<time>1970-01-01T02:45:00.202Z</time>
</trkpt>
<trkpt lat="51.3274117" lon="4.3546500">
	<ele>4.00</ele>
	<time>1970-01-01T02:45:09.393Z</time>
</trkpt>
<trkpt lat="51.3275871" lon="4.3550501">
	<ele>4.00</ele>
	<time>1970-01-01T02:45:14.188Z</time>
</trkpt>
<trkpt lat="51.3277855" lon="4.3554959">
	<ele>4.00</ele>
	<time>1970-01-01T02:45:19.957Z</time>
</trkpt>
<trkpt lat="51.3286362" lon="4.3574190">
	<ele>4.00</ele>
	<time>1970-01-01T02:45:47.713Z</time>
</trkpt>
<trkpt lat="51.3288918" lon="4.3579869">
	<ele>4.00</ele>
	<time>1970-01-01T02:45:56.459Z</time>
</trkpt>
<trkpt lat="51.3291435" lon="4.3585529">
	<ele>4.00</ele>
	<time>1970-01-01T02:46:05.108Z</time>
</trkpt>
<trkpt lat="51.3292198" lon="4.3587332">
	<ele>4.00</ele>
	<time>1970-01-01T02:46:07.823Z</time>
</trkpt>
<trkpt lat="51.3297539" lon="4.3599362">
	<ele>4.00</ele>
	<time>1970-01-01T02:46:26.546Z</time>
</trkpt>
<trkpt lat="51.3299866" lon="4.3604879">
	<ele>4.00</ele>
	<time>1970-01-01T02:46:34.937Z</time>
</trkpt>
<trkpt lat="51.3300171" lon="4.3605680">
	<ele>4.00</ele>
	<time>1970-01-01T02:46:36.215Z</time>
</trkpt>
<trkpt lat="51.3304100" lon="4.3614731">
	<ele>5.00</ele>
	<time>1970-01-01T02:46:53.699Z</time>
</trkpt>
<trkpt lat="51.3304367" lon="4.3615670">
	<ele>5.00</ele>
	<time>1970-01-01T02:46:55.169Z</time>
</trkpt>
<trkpt lat="51.3304710" lon="4.3616581">
	<ele>5.00</ele>
	<time>1970-01-01T02:46:56.832Z</time>
</trkpt>
<trkpt lat="51.3306732" lon="4.3621550">
	<ele>5.00</ele>
	<time>1970-01-01T02:47:05.124Z</time>
</trkpt>
<trkpt lat="51.3308792" lon="4.3626480">
	<ele>5.00</ele>
	<time>1970-01-01T02:47:13.139Z</time>
</trkpt>
<trkpt lat="51.3310013" lon="4.3629489">
	<ele>5.00</ele>
	<time>1970-01-01T02:47:17.934Z</time>
</trkpt>
<trkpt lat="51.3310738" lon="4.3630862">
	<ele>5.00</ele>
	<time>1970-01-01T02:47:20.218Z</time>
</trkpt>
<trkpt lat="51.3316193" lon="4.3643699">
	<ele>5.00</ele>
	<time>1970-01-01T02:47:40.425Z</time>
</trkpt>
<trkpt lat="51.3316574" lon="4.3644519">
	<ele>5.00</ele>
	<time>1970-01-01T02:47:41.721Z</time>
</trkpt>
<trkpt lat="51.3316994" lon="4.3644838">
	<ele>5.00</ele>
	<time>1970-01-01T02:47:42.647Z</time>
</trkpt>
<trkpt lat="51.3317528" lon="4.3645921">
	<ele>5.00</ele>
	<time>1970-01-01T02:47:44.495Z</time>
</trkpt>
<trkpt lat="51.3320198" lon="4.3652349">
	<ele>5.50</ele>
	<time>1970-01-01T02:47:55.720Z</time>
</trkpt>
<trkpt lat="51.3320351" lon="4.3653641">
	<ele>5.50</ele>
	<time>1970-01-01T02:47:57.524Z</time>
</trkpt>
<trkpt lat="51.3320618" lon="4.3654389">
	<ele>5.50</ele>
	<time>1970-01-01T02:47:58.719Z</time>
</trkpt>
<trkpt lat="51.3321495" lon="4.3656392">
	<ele>5.00</ele>
	<time>1970-01-01T02:48:01.636Z</time>
</trkpt>
<trkpt lat="51.3322792" lon="4.3659420">
	<ele>5.25</ele>
	<time>1970-01-01T02:48:06.461Z</time>
</trkpt>
<trkpt lat="51.3328438" lon="4.3673148">
	<ele>5.00</ele>
	<time>1970-01-01T02:48:26.727Z</time>
</trkpt>
<trkpt lat="51.3331146" lon="4.3679619">
	<ele>5.00</ele>
	<time>1970-01-01T02:48:36.454Z</time>
</trkpt>
<trkpt lat="51.3337479" lon="4.3694892">
	<ele>5.25</ele>
	<time>1970-01-01T02:49:00.743Z</time>
</trkpt>
<trkpt lat="51.3340454" lon="4.3701968">
	<ele>5.00</ele>
	<time>1970-01-01T02:49:11.077Z</time>
</trkpt>
<trkpt lat="51.3342514" lon="4.3706932">
	<ele>5.00</ele>
	<time>1970-01-01T02:49:18.562Z</time>
</trkpt>
<trkpt lat="51.3346748" lon="4.3717022">
	<ele>5.00</ele>
	<time>1970-01-01T02:49:33.711Z</time>
</trkpt>
<trkpt lat="51.3349304" lon="4.3723168">
	<ele>5.00</ele>
	<time>1970-01-01T02:49:43.157Z</time>
</trkpt>
<trkpt lat="51.3352394" lon="4.3730621">
	<ele>5.75</ele>
	<time>1970-01-01T02:49:56.598Z</time>
</trkpt>
<trkpt lat="51.3353271" lon="4.3729739">
	<ele>5.50</ele>
	<time>1970-01-01T02:49:58.697Z</time>
</trkpt>
<trkpt lat="51.3354111" lon="4.3728890">
	<ele>5.00</ele>
	<time>1970-01-01T02:50:00.510Z</time>
</trkpt>
<trkpt lat="51.3359489" lon="4.3741679">
	<ele>5.00</ele>
	<time>1970-01-01T02:50:18.921Z</time>
</trkpt>
<trkpt lat="51.3371010" lon="4.3769112">
	<ele>5.75</ele>
	<time>1970-01-01T02:51:04.351Z</time>
</trkpt>
<trkpt lat="51.3372078" lon="4.3771601">
	<ele>6.00</ele>
	<time>1970-01-01T02:51:08.544Z</time>
</trkpt>
<trkpt lat="51.3393288" lon="4.3814340">
	<ele>6.25</ele>
	<time>1970-01-01T02:52:20.884Z</time>
</trkpt>
<trkpt lat="51.3394318" lon="4.3815951">
	<ele>6.00</ele>
	<time>1970-01-01T02:52:23.624Z</time>
</trkpt>
<trkpt lat="51.3396072" lon="4.3819351">
	<ele>6.00</ele>
	<time>1970-01-01T02:52:29.004Z</time>
</trkpt>
<trkpt lat="51.3396378" lon="4.3819032">
	<ele>6.00</ele>
	<time>1970-01-01T02:52:29.704Z</time>
</trkpt>
<trkpt lat="51.3398514" lon="4.3816161">
	<ele>6.00</ele>
	<time>1970-01-01T02:52:35.168Z</time>
</trkpt>
<trkpt lat="51.3398895" lon="4.3815632">
	<ele>5.50</ele>
	<time>1970-01-01T02:52:36.159Z</time>
</trkpt>
<trkpt lat="51.3429222" lon="4.3773890">
	<ele>5.50</ele>
	<time>1970-01-01T02:53:56.393Z</time>
</trkpt>
<trkpt lat="51.3431969" lon="4.3770280">
	<ele>5.25</ele>
	<time>1970-01-01T02:54:03.093Z</time>
</trkpt>
<trkpt lat="51.3454018" lon="4.3740292">
	<ele>5.50</ele>
	<time>1970-01-01T02:55:02.425Z</time>
</trkpt>
<trkpt lat="51.3479729" lon="4.3704710">
	<ele>6.00</ele>
	<time>1970-01-01T02:56:14.391Z</time>
</trkpt>
<trkpt lat="51.3510590" lon="4.3662038">
	<ele>7.00</ele>
	<time>1970-01-01T02:57:43.280Z</time>
</trkpt>
<trkpt lat="51.3512344" lon="4.3659821">
	<ele>7.00</ele>
	<time>1970-01-01T02:57:47.867Z</time>
</trkpt>
<trkpt lat="51.3513680" lon="4.3662820">
	<ele>8.00</ele>
	<time>1970-01-01T02:57:52.634Z</time>
</trkpt>
<trkpt lat="51.3521881" lon="4.3680878">
	<ele>8.00</ele>
	<time>1970-01-01T02:58:25.845Z</time>
</trkpt>
<trkpt lat="51.3523598" lon="4.3684659">
	<ele>8.00</ele>
	<time>1970-01-01T02:58:32.227Z</time>
</trkpt>
<trkpt lat="51.3524704" lon="4.3687148">
	<ele>8.00</ele>
	<time>1970-01-01T02:58:36.234Z</time>
</trkpt>
<trkpt lat="51.3525429" lon="4.3688779">
	<ele>8.00</ele>
	<time>1970-01-01T02:58:38.887Z</time>
</trkpt>
<trkpt lat="51.3529778" lon="4.3698549">
	<ele>8.00</ele>
	<time>1970-01-01T02:58:54.415Z</time>
</trkpt>
<trkpt lat="51.3532028" lon="4.3703198">
	<ele>8.00</ele>
	<time>1970-01-01T02:59:02.004Z</time>
</trkpt>
<trkpt lat="51.3536453" lon="4.3713579">
	<ele>9.00</ele>
	<time>1970-01-01T02:59:21.735Z</time>
</trkpt>
<trkpt lat="51.3545380" lon="4.3733778">
	<ele>9.25</ele>
	<time>1970-01-01T02:59:56.532Z</time>
</trkpt>
<trkpt lat="51.3549843" lon="4.3743691">
	<ele>9.75</ele>
	<time>1970-01-01T03:00:14.241Z</time>
</trkpt>
<trkpt lat="51.3550148" lon="4.3744302">
	<ele>9.75</ele>
	<time>1970-01-01T03:00:15.232Z</time>
</trkpt>
<trkpt lat="51.3550682" lon="4.3746138">
	<ele>10.00</ele>
	<time>1970-01-01T03:00:18.195Z</time>
</trkpt>
<trkpt lat="51.3550758" lon="4.3747959">
	<ele>10.00</ele>
	<time>1970-01-01T03:00:20.896Z</time>
</trkpt>
<trkpt lat="51.3550072" lon="4.3759012">
	<ele>10.00</ele>
	<time>1970-01-01T03:00:36.196Z</time>
</trkpt>
<trkpt lat="51.3548241" lon="4.3783579">
	<ele>13.00</ele>
	<time>1970-01-01T03:01:08.489Z</time>
</trkpt>
<trkpt lat="51.3546333" lon="4.3808818">
	<ele>10.50</ele>
	<time>1970-01-01T03:01:43.457Z</time>
</trkpt>
<trkpt lat="51.3543777" lon="4.3843818">
	<ele>11.75</ele>
	<time>1970-01-01T03:02:35.814Z</time>
</trkpt>
<trkpt lat="51.3543777" lon="4.3845291">
	<ele>11.75</ele>
	<time>1970-01-01T03:02:37.707Z</time>
</trkpt>
<trkpt lat="51.3543777" lon="4.3845768">
	<ele>11.75</ele>
	<time>1970-01-01T03:02:38.273Z</time>
</trkpt>
<trkpt lat="51.3544388" lon="4.3849139">
	<ele>11.75</ele>
	<time>1970-01-01T03:02:42.787Z</time>
</trkpt>
<trkpt lat="51.3545113" lon="4.3852940">
	<ele>12.00</ele>
	<time>1970-01-01T03:02:48.019Z</time>
</trkpt>
</trkseg>
</trk>
</gpx>
